<?xml version="1.0" encoding="UTF-8" standalone="no" ?>
<gpx xmlns="http://www.topografix.com/GPX/1/1" creator="www.plotaroute.com" version="1.1"  xmlns:xsi="http://www.w3.org/2001/XMLSchema-instance" xsi:schemaLocation="http://www.topografix.com/GPX/1/1 http://www.topografix.com/GPX/1/1/gpx.xsd">
<metadata>
<desc>Route created on plotaroute.com</desc>
</metadata>
<trk>
<name>N.shalom-taoz.30km</name>
<trkseg>
<trkpt lat="31.781465" lon="35.0023">
<ele>267</ele>
<time>2020-08-26T00:00:00Z</time></trkpt>
<trkpt lat="31.781465" lon="35.0023">
<ele>267</ele>
<time>2020-08-26T00:00:00Z</time></trkpt>
<trkpt lat="31.781393" lon="35.002319">
<ele>267</ele>
<time>2020-08-26T00:00:01Z</time></trkpt>
<trkpt lat="31.781521" lon="35.002942">
<ele>266</ele>
<time>2020-08-26T00:00:10Z</time></trkpt>
<trkpt lat="31.781717" lon="35.003628">
<ele>267</ele>
<time>2020-08-26T00:00:20Z</time></trkpt>
<trkpt lat="31.781831" lon="35.004271">
<ele>268</ele>
<time>2020-08-26T00:00:33Z</time></trkpt>
<trkpt lat="31.781878" lon="35.004377">
<ele>269</ele>
<time>2020-08-26T00:00:38Z</time></trkpt>
<trkpt lat="31.781971" lon="35.004524">
<ele>271</ele>
<time>2020-08-26T00:00:45Z</time></trkpt>
<trkpt lat="31.78229" lon="35.004731">
<ele>275</ele>
<time>2020-08-26T00:01:00Z</time></trkpt>
<trkpt lat="31.782391" lon="35.004817">
<ele>276</ele>
<time>2020-08-26T00:01:07Z</time></trkpt>
<trkpt lat="31.782662" lon="35.005152">
<ele>282</ele>
<time>2020-08-26T00:01:28Z</time></trkpt>
<trkpt lat="31.782767" lon="35.00524">
<ele>285</ele>
<time>2020-08-26T00:01:35Z</time></trkpt>
<trkpt lat="31.782836" lon="35.005257">
<ele>286</ele>
<time>2020-08-26T00:01:38Z</time></trkpt>
<trkpt lat="31.782924" lon="35.005246">
<ele>286</ele>
<time>2020-08-26T00:01:43Z</time></trkpt>
<trkpt lat="31.783038" lon="35.005197">
<ele>286</ele>
<time>2020-08-26T00:01:46Z</time></trkpt>
<trkpt lat="31.783201" lon="35.005044">
<ele>285</ele>
<time>2020-08-26T00:01:49Z</time></trkpt>
<trkpt lat="31.78346" lon="35.004931">
<ele>285</ele>
<time>2020-08-26T00:01:53Z</time></trkpt>
<trkpt lat="31.783548" lon="35.004932">
<ele>285</ele>
<time>2020-08-26T00:01:55Z</time></trkpt>
<trkpt lat="31.784387" lon="35.00528">
<ele>294</ele>
<time>2020-08-26T00:02:30Z</time></trkpt>
<trkpt lat="31.784871" lon="35.005594">
<ele>299</ele>
<time>2020-08-26T00:02:53Z</time></trkpt>
<trkpt lat="31.785083" lon="35.0058">
<ele>302</ele>
<time>2020-08-26T00:03:05Z</time></trkpt>
<trkpt lat="31.785208" lon="35.005952">
<ele>304</ele>
<time>2020-08-26T00:03:14Z</time></trkpt>
<trkpt lat="31.785208" lon="35.005952">
<ele>304</ele>
<time>2020-08-26T00:03:14Z</time></trkpt>
<trkpt lat="31.785319" lon="35.006087">
<ele>305</ele>
<time>2020-08-26T00:03:21Z</time></trkpt>
<trkpt lat="31.785392" lon="35.006277">
<ele>307</ele>
<time>2020-08-26T00:03:29Z</time></trkpt>
<trkpt lat="31.785435" lon="35.006517">
<ele>310</ele>
<time>2020-08-26T00:03:39Z</time></trkpt>
<trkpt lat="31.785509" lon="35.006753">
<ele>313</ele>
<time>2020-08-26T00:03:50Z</time></trkpt>
<trkpt lat="31.785557" lon="35.006864">
<ele>314</ele>
<time>2020-08-26T00:03:55Z</time></trkpt>
<trkpt lat="31.785677" lon="35.007032">
<ele>317</ele>
<time>2020-08-26T00:04:05Z</time></trkpt>
<trkpt lat="31.785816" lon="35.007123">
<ele>318</ele>
<time>2020-08-26T00:04:14Z</time></trkpt>
<trkpt lat="31.786072" lon="35.007219">
<ele>322</ele>
<time>2020-08-26T00:04:28Z</time></trkpt>
<trkpt lat="31.786222" lon="35.007252">
<ele>324</ele>
<time>2020-08-26T00:04:36Z</time></trkpt>
<trkpt lat="31.786804" lon="35.007418">
<ele>333</ele>
<time>2020-08-26T00:05:08Z</time></trkpt>
<trkpt lat="31.786998" lon="35.007439">
<ele>335</ele>
<time>2020-08-26T00:05:13Z</time></trkpt>
<trkpt lat="31.787109" lon="35.007413">
<ele>335</ele>
<time>2020-08-26T00:05:15Z</time></trkpt>
<trkpt lat="31.787262" lon="35.007285">
<ele>336</ele>
<time>2020-08-26T00:05:19Z</time></trkpt>
<trkpt lat="31.78731" lon="35.007206">
<ele>336</ele>
<time>2020-08-26T00:05:21Z</time></trkpt>
<trkpt lat="31.78735" lon="35.007033">
<ele>335</ele>
<time>2020-08-26T00:05:24Z</time></trkpt>
<trkpt lat="31.787391" lon="35.006576">
<ele>333</ele>
<time>2020-08-26T00:05:32Z</time></trkpt>
<trkpt lat="31.787473" lon="35.006237">
<ele>335</ele>
<time>2020-08-26T00:05:39Z</time></trkpt>
<trkpt lat="31.787579" lon="35.005903">
<ele>337</ele>
<time>2020-08-26T00:05:47Z</time></trkpt>
<trkpt lat="31.787819" lon="35.00546">
<ele>340</ele>
<time>2020-08-26T00:06:05Z</time></trkpt>
<trkpt lat="31.788682" lon="35.004269">
<ele>348</ele>
<time>2020-08-26T00:06:50Z</time></trkpt>
<trkpt lat="31.788797" lon="35.004151">
<ele>348</ele>
<time>2020-08-26T00:06:55Z</time></trkpt>
<trkpt lat="31.788905" lon="35.00408">
<ele>349</ele>
<time>2020-08-26T00:07:00Z</time></trkpt>
<trkpt lat="31.789141" lon="35.004017">
<ele>352</ele>
<time>2020-08-26T00:07:08Z</time></trkpt>
<trkpt lat="31.78941" lon="35.004012">
<ele>355</ele>
<time>2020-08-26T00:07:20Z</time></trkpt>
<trkpt lat="31.790069" lon="35.004065">
<ele>364</ele>
<time>2020-08-26T00:07:52Z</time></trkpt>
<trkpt lat="31.790671" lon="35.004165">
<ele>368</ele>
<time>2020-08-26T00:08:14Z</time></trkpt>
<trkpt lat="31.790671" lon="35.004165">
<ele>368</ele>
<time>2020-08-26T00:08:14Z</time></trkpt>
<trkpt lat="31.79189" lon="35.004366">
<ele>380</ele>
<time>2020-08-26T00:09:05Z</time></trkpt>
<trkpt lat="31.792791" lon="35.004419">
<ele>389</ele>
<time>2020-08-26T00:09:45Z</time></trkpt>
<trkpt lat="31.792944" lon="35.004465">
<ele>391</ele>
<time>2020-08-26T00:09:51Z</time></trkpt>
<trkpt lat="31.793088" lon="35.004551">
<ele>392</ele>
<time>2020-08-26T00:09:57Z</time></trkpt>
<trkpt lat="31.793195" lon="35.004579">
<ele>392</ele>
<time>2020-08-26T00:10:01Z</time></trkpt>
<trkpt lat="31.793583" lon="35.004468">
<ele>392</ele>
<time>2020-08-26T00:10:10Z</time></trkpt>
<trkpt lat="31.793909" lon="35.004022">
<ele>394</ele>
<time>2020-08-26T00:10:21Z</time></trkpt>
<trkpt lat="31.794002" lon="35.003841">
<ele>395</ele>
<time>2020-08-26T00:10:24Z</time></trkpt>
<trkpt lat="31.794077" lon="35.003649">
<ele>395</ele>
<time>2020-08-26T00:10:27Z</time></trkpt>
<trkpt lat="31.794415" lon="35.003023">
<ele>393</ele>
<time>2020-08-26T00:10:35Z</time></trkpt>
<trkpt lat="31.794492" lon="35.002906">
<ele>392</ele>
<time>2020-08-26T00:10:37Z</time></trkpt>
<trkpt lat="31.794621" lon="35.002758">
<ele>392</ele>
<time>2020-08-26T00:10:39Z</time></trkpt>
<trkpt lat="31.794891" lon="35.002514">
<ele>391</ele>
<time>2020-08-26T00:10:42Z</time></trkpt>
<trkpt lat="31.795551" lon="35.001828">
<ele>385</ele>
<time>2020-08-26T00:10:49Z</time></trkpt>
<trkpt lat="31.795551" lon="35.001828">
<ele>385</ele>
<time>2020-08-26T00:10:49Z</time></trkpt>
<trkpt lat="31.79566" lon="35.001715">
<ele>385</ele>
<time>2020-08-26T00:10:51Z</time></trkpt>
<trkpt lat="31.795806" lon="35.0015">
<ele>384</ele>
<time>2020-08-26T00:10:53Z</time></trkpt>
<trkpt lat="31.795912" lon="35.001254">
<ele>382</ele>
<time>2020-08-26T00:10:55Z</time></trkpt>
<trkpt lat="31.795915" lon="35.001106">
<ele>381</ele>
<time>2020-08-26T00:10:56Z</time></trkpt>
<trkpt lat="31.795879" lon="35.001009">
<ele>381</ele>
<time>2020-08-26T00:10:57Z</time></trkpt>
<trkpt lat="31.795824" lon="35.000925">
<ele>381</ele>
<time>2020-08-26T00:10:57Z</time></trkpt>
<trkpt lat="31.795741" lon="35.000859">
<ele>381</ele>
<time>2020-08-26T00:10:58Z</time></trkpt>
<trkpt lat="31.795741" lon="35.000859">
<ele>381</ele>
<time>2020-08-26T00:10:58Z</time></trkpt>
<trkpt lat="31.79566" lon="35.000795">
<ele>380</ele>
<time>2020-08-26T00:10:59Z</time></trkpt>
<trkpt lat="31.795412" lon="35.000668">
<ele>377</ele>
<time>2020-08-26T00:11:01Z</time></trkpt>
<trkpt lat="31.795324" lon="35.000647">
<ele>377</ele>
<time>2020-08-26T00:11:02Z</time></trkpt>
<trkpt lat="31.795053" lon="35.000643">
<ele>377</ele>
<time>2020-08-26T00:11:06Z</time></trkpt>
<trkpt lat="31.794911" lon="35.000669">
<ele>377</ele>
<time>2020-08-26T00:11:08Z</time></trkpt>
<trkpt lat="31.794532" lon="35.000794">
<ele>377</ele>
<time>2020-08-26T00:11:15Z</time></trkpt>
<trkpt lat="31.794433" lon="35.000791">
<ele>377</ele>
<time>2020-08-26T00:11:16Z</time></trkpt>
<trkpt lat="31.79433" lon="35.000678">
<ele>376</ele>
<time>2020-08-26T00:11:18Z</time></trkpt>
<trkpt lat="31.794391" lon="35.000608">
<ele>376</ele>
<time>2020-08-26T00:11:19Z</time></trkpt>
<trkpt lat="31.79496" lon="35.00046">
<ele>374</ele>
<time>2020-08-26T00:11:26Z</time></trkpt>
<trkpt lat="31.79552" lon="35.00043">
<ele>374</ele>
<time>2020-08-26T00:11:33Z</time></trkpt>
<trkpt lat="31.795839" lon="35.000355">
<ele>372</ele>
<time>2020-08-26T00:11:37Z</time></trkpt>
<trkpt lat="31.796358" lon="35.000538">
<ele>371</ele>
<time>2020-08-26T00:11:44Z</time></trkpt>
<trkpt lat="31.79666" lon="35.00071">
<ele>370</ele>
<time>2020-08-26T00:11:47Z</time></trkpt>
<trkpt lat="31.79714" lon="35.00085">
<ele>367</ele>
<time>2020-08-26T00:11:52Z</time></trkpt>
<trkpt lat="31.797502" lon="35.000804">
<ele>364</ele>
<time>2020-08-26T00:11:56Z</time></trkpt>
<trkpt lat="31.797737" lon="35.001042">
<ele>365</ele>
<time>2020-08-26T00:11:59Z</time></trkpt>
<trkpt lat="31.797901" lon="35.001255">
<ele>364</ele>
<time>2020-08-26T00:12:02Z</time></trkpt>
<trkpt lat="31.79832" lon="35.001487">
<ele>361</ele>
<time>2020-08-26T00:12:06Z</time></trkpt>
<trkpt lat="31.798526" lon="35.001583">
<ele>360</ele>
<time>2020-08-26T00:12:08Z</time></trkpt>
<trkpt lat="31.798669" lon="35.001673">
<ele>359</ele>
<time>2020-08-26T00:12:09Z</time></trkpt>
<trkpt lat="31.798786" lon="35.001773">
<ele>358</ele>
<time>2020-08-26T00:12:10Z</time></trkpt>
<trkpt lat="31.798956" lon="35.001967">
<ele>355</ele>
<time>2020-08-26T00:12:11Z</time></trkpt>
<trkpt lat="31.798956" lon="35.001967">
<ele>355</ele>
<time>2020-08-26T00:12:11Z</time></trkpt>
<trkpt lat="31.799047" lon="35.002023">
<ele>355</ele>
<time>2020-08-26T00:12:11Z</time></trkpt>
<trkpt lat="31.799206" lon="35.002062">
<ele>354</ele>
<time>2020-08-26T00:12:12Z</time></trkpt>
<trkpt lat="31.799511" lon="35.002086">
<ele>350</ele>
<time>2020-08-26T00:12:13Z</time></trkpt>
<trkpt lat="31.799955" lon="35.002">
<ele>347</ele>
<time>2020-08-26T00:12:15Z</time></trkpt>
<trkpt lat="31.800351" lon="35.002003">
<ele>345</ele>
<time>2020-08-26T00:12:16Z</time></trkpt>
<trkpt lat="31.800544" lon="35.002051">
<ele>344</ele>
<time>2020-08-26T00:12:17Z</time></trkpt>
<trkpt lat="31.800714" lon="35.002171">
<ele>340</ele>
<time>2020-08-26T00:12:17Z</time></trkpt>
<trkpt lat="31.801027" lon="35.002542">
<ele>333</ele>
<time>2020-08-26T00:12:20Z</time></trkpt>
<trkpt lat="31.801425" lon="35.002897">
<ele>327</ele>
<time>2020-08-26T00:12:23Z</time></trkpt>
<trkpt lat="31.801681" lon="35.00305">
<ele>324</ele>
<time>2020-08-26T00:12:26Z</time></trkpt>
<trkpt lat="31.801943" lon="35.003149">
<ele>322</ele>
<time>2020-08-26T00:12:28Z</time></trkpt>
<trkpt lat="31.802086" lon="35.003098">
<ele>324</ele>
<time>2020-08-26T00:12:30Z</time></trkpt>
<trkpt lat="31.802209" lon="35.003127">
<ele>323</ele>
<time>2020-08-26T00:12:30Z</time></trkpt>
<trkpt lat="31.802275" lon="35.00316">
<ele>322</ele>
<time>2020-08-26T00:12:30Z</time></trkpt>
<trkpt lat="31.80247" lon="35.003313">
<ele>318</ele>
<time>2020-08-26T00:12:30Z</time></trkpt>
<trkpt lat="31.80262" lon="35.003387">
<ele>316</ele>
<time>2020-08-26T00:12:30Z</time></trkpt>
<trkpt lat="31.803266" lon="35.00357">
<ele>308</ele>
<time>2020-08-26T00:12:32Z</time></trkpt>
<trkpt lat="31.803383" lon="35.003637">
<ele>307</ele>
<time>2020-08-26T00:12:33Z</time></trkpt>
<trkpt lat="31.803677" lon="35.00391">
<ele>301</ele>
<time>2020-08-26T00:12:35Z</time></trkpt>
<trkpt lat="31.803873" lon="35.004016">
<ele>298</ele>
<time>2020-08-26T00:12:36Z</time></trkpt>
<trkpt lat="31.804119" lon="35.00408">
<ele>295</ele>
<time>2020-08-26T00:12:37Z</time></trkpt>
<trkpt lat="31.804407" lon="35.004084">
<ele>295</ele>
<time>2020-08-26T00:12:39Z</time></trkpt>
<trkpt lat="31.80453" lon="35.004117">
<ele>293</ele>
<time>2020-08-26T00:12:39Z</time></trkpt>
<trkpt lat="31.804628" lon="35.004174">
<ele>292</ele>
<time>2020-08-26T00:12:39Z</time></trkpt>
<trkpt lat="31.804628" lon="35.004174">
<ele>292</ele>
<time>2020-08-26T00:12:39Z</time></trkpt>
<trkpt lat="31.804772" lon="35.004258">
<ele>291</ele>
<time>2020-08-26T00:12:40Z</time></trkpt>
<trkpt lat="31.80497" lon="35.004448">
<ele>288</ele>
<time>2020-08-26T00:12:41Z</time></trkpt>
<trkpt lat="31.805116" lon="35.004364">
<ele>288</ele>
<time>2020-08-26T00:12:42Z</time></trkpt>
<trkpt lat="31.80547" lon="35.00425">
<ele>288</ele>
<time>2020-08-26T00:12:47Z</time></trkpt>
<trkpt lat="31.80561" lon="35.004218">
<ele>288</ele>
<time>2020-08-26T00:12:49Z</time></trkpt>
<trkpt lat="31.805717" lon="35.004216">
<ele>288</ele>
<time>2020-08-26T00:12:50Z</time></trkpt>
<trkpt lat="31.805857" lon="35.004244">
<ele>287</ele>
<time>2020-08-26T00:12:52Z</time></trkpt>
<trkpt lat="31.806395" lon="35.004433">
<ele>280</ele>
<time>2020-08-26T00:12:53Z</time></trkpt>
<trkpt lat="31.806665" lon="35.004503">
<ele>278</ele>
<time>2020-08-26T00:12:54Z</time></trkpt>
<trkpt lat="31.806844" lon="35.004325">
<ele>277</ele>
<time>2020-08-26T00:12:57Z</time></trkpt>
<trkpt lat="31.806907" lon="35.004217">
<ele>277</ele>
<time>2020-08-26T00:12:58Z</time></trkpt>
<trkpt lat="31.807147" lon="35.004153">
<ele>274</ele>
<time>2020-08-26T00:13:01Z</time></trkpt>
<trkpt lat="31.807608" lon="35.003663">
<ele>276</ele>
<time>2020-08-26T00:13:09Z</time></trkpt>
<trkpt lat="31.808363" lon="35.003349">
<ele>271</ele>
<time>2020-08-26T00:13:18Z</time></trkpt>
<trkpt lat="31.808571" lon="35.003395">
<ele>270</ele>
<time>2020-08-26T00:13:19Z</time></trkpt>
<trkpt lat="31.808774" lon="35.003316">
<ele>269</ele>
<time>2020-08-26T00:13:21Z</time></trkpt>
<trkpt lat="31.80896" lon="35.003192">
<ele>270</ele>
<time>2020-08-26T00:13:24Z</time></trkpt>
<trkpt lat="31.809221" lon="35.003061">
<ele>270</ele>
<time>2020-08-26T00:13:28Z</time></trkpt>
<trkpt lat="31.809941" lon="35.003052">
<ele>265</ele>
<time>2020-08-26T00:13:36Z</time></trkpt>
<trkpt lat="31.810009" lon="35.003027">
<ele>265</ele>
<time>2020-08-26T00:13:37Z</time></trkpt>
<trkpt lat="31.810189" lon="35.00301">
<ele>264</ele>
<time>2020-08-26T00:13:38Z</time></trkpt>
<trkpt lat="31.810356" lon="35.002942">
<ele>263</ele>
<time>2020-08-26T00:13:40Z</time></trkpt>
<trkpt lat="31.810461" lon="35.002918">
<ele>263</ele>
<time>2020-08-26T00:13:42Z</time></trkpt>
<trkpt lat="31.810654" lon="35.002798">
<ele>262</ele>
<time>2020-08-26T00:13:44Z</time></trkpt>
<trkpt lat="31.810654" lon="35.002798">
<ele>262</ele>
<time>2020-08-26T00:13:44Z</time></trkpt>
<trkpt lat="31.810773" lon="35.002649">
<ele>261</ele>
<time>2020-08-26T00:13:47Z</time></trkpt>
<trkpt lat="31.810874" lon="35.002475">
<ele>261</ele>
<time>2020-08-26T00:13:49Z</time></trkpt>
<trkpt lat="31.811014" lon="35.002086">
<ele>264</ele>
<time>2020-08-26T00:13:56Z</time></trkpt>
<trkpt lat="31.811355" lon="35.001487">
<ele>264</ele>
<time>2020-08-26T00:14:09Z</time></trkpt>
<trkpt lat="31.811919" lon="35.000665">
<ele>262</ele>
<time>2020-08-26T00:14:19Z</time></trkpt>
<trkpt lat="31.811973" lon="35.000609">
<ele>262</ele>
<time>2020-08-26T00:14:20Z</time></trkpt>
<trkpt lat="31.812363" lon="35.000404">
<ele>260</ele>
<time>2020-08-26T00:14:26Z</time></trkpt>
<trkpt lat="31.81247" lon="35.00039">
<ele>259</ele>
<time>2020-08-26T00:14:27Z</time></trkpt>
<trkpt lat="31.812532" lon="35.00036">
<ele>259</ele>
<time>2020-08-26T00:14:28Z</time></trkpt>
<trkpt lat="31.812676" lon="35.00035">
<ele>258</ele>
<time>2020-08-26T00:14:30Z</time></trkpt>
<trkpt lat="31.812849" lon="35.000305">
<ele>257</ele>
<time>2020-08-26T00:14:32Z</time></trkpt>
<trkpt lat="31.812949" lon="35.000261">
<ele>257</ele>
<time>2020-08-26T00:14:33Z</time></trkpt>
<trkpt lat="31.813135" lon="35.000136">
<ele>257</ele>
<time>2020-08-26T00:14:36Z</time></trkpt>
<trkpt lat="31.813422" lon="34.999885">
<ele>257</ele>
<time>2020-08-26T00:14:40Z</time></trkpt>
<trkpt lat="31.813548" lon="34.999804">
<ele>257</ele>
<time>2020-08-26T00:14:41Z</time></trkpt>
<trkpt lat="31.813942" lon="34.999618">
<ele>253</ele>
<time>2020-08-26T00:14:45Z</time></trkpt>
<trkpt lat="31.81406" lon="34.999522">
<ele>252</ele>
<time>2020-08-26T00:14:47Z</time></trkpt>
<trkpt lat="31.814335" lon="34.999076">
<ele>252</ele>
<time>2020-08-26T00:14:55Z</time></trkpt>
<trkpt lat="31.814591" lon="34.99878">
<ele>253</ele>
<time>2020-08-26T00:15:00Z</time></trkpt>
<trkpt lat="31.81479" lon="34.998427">
<ele>253</ele>
<time>2020-08-26T00:15:04Z</time></trkpt>
<trkpt lat="31.814862" lon="34.998335">
<ele>252</ele>
<time>2020-08-26T00:15:06Z</time></trkpt>
<trkpt lat="31.815022" lon="34.998166">
<ele>251</ele>
<time>2020-08-26T00:15:08Z</time></trkpt>
<trkpt lat="31.815274" lon="34.998009">
<ele>249</ele>
<time>2020-08-26T00:15:11Z</time></trkpt>
<trkpt lat="31.815475" lon="34.997767">
<ele>248</ele>
<time>2020-08-26T00:15:14Z</time></trkpt>
<trkpt lat="31.815886" lon="34.997123">
<ele>243</ele>
<time>2020-08-26T00:15:20Z</time></trkpt>
<trkpt lat="31.815985" lon="34.996951">
<ele>244</ele>
<time>2020-08-26T00:15:22Z</time></trkpt>
<trkpt lat="31.816028" lon="34.996818">
<ele>244</ele>
<time>2020-08-26T00:15:23Z</time></trkpt>
<trkpt lat="31.817061" lon="34.996431">
<ele>238</ele>
<time>2020-08-26T00:15:34Z</time></trkpt>
<trkpt lat="31.817243" lon="34.99631">
<ele>238</ele>
<time>2020-08-26T00:15:37Z</time></trkpt>
<trkpt lat="31.817404" lon="34.996153">
<ele>238</ele>
<time>2020-08-26T00:15:40Z</time></trkpt>
<trkpt lat="31.81759" lon="34.996072">
<ele>238</ele>
<time>2020-08-26T00:15:43Z</time></trkpt>
<trkpt lat="31.818098" lon="34.996104">
<ele>237</ele>
<time>2020-08-26T00:15:50Z</time></trkpt>
<trkpt lat="31.818098" lon="34.996104">
<ele>237</ele>
<time>2020-08-26T00:15:50Z</time></trkpt>
<trkpt lat="31.818313" lon="34.996117">
<ele>237</ele>
<time>2020-08-26T00:15:53Z</time></trkpt>
<trkpt lat="31.818703" lon="34.996111">
<ele>237</ele>
<time>2020-08-26T00:16:02Z</time></trkpt>
<trkpt lat="31.818891" lon="34.996002">
<ele>237</ele>
<time>2020-08-26T00:16:07Z</time></trkpt>
<trkpt lat="31.818836" lon="34.995834">
<ele>237</ele>
<time>2020-08-26T00:16:10Z</time></trkpt>
<trkpt lat="31.818809" lon="34.995698">
<ele>239</ele>
<time>2020-08-26T00:16:13Z</time></trkpt>
<trkpt lat="31.819049" lon="34.995486">
<ele>241</ele>
<time>2020-08-26T00:16:19Z</time></trkpt>
<trkpt lat="31.819363" lon="34.995373">
<ele>241</ele>
<time>2020-08-26T00:16:25Z</time></trkpt>
<trkpt lat="31.820199" lon="34.995161">
<ele>238</ele>
<time>2020-08-26T00:16:36Z</time></trkpt>
<trkpt lat="31.820589" lon="34.995074">
<ele>236</ele>
<time>2020-08-26T00:16:39Z</time></trkpt>
<trkpt lat="31.821125" lon="34.994983">
<ele>232</ele>
<time>2020-08-26T00:16:43Z</time></trkpt>
<trkpt lat="31.821229" lon="34.994948">
<ele>231</ele>
<time>2020-08-26T00:16:45Z</time></trkpt>
<trkpt lat="31.821387" lon="34.994843">
<ele>231</ele>
<time>2020-08-26T00:16:48Z</time></trkpt>
<trkpt lat="31.821735" lon="34.994509">
<ele>232</ele>
<time>2020-08-26T00:16:55Z</time></trkpt>
<trkpt lat="31.821735" lon="34.994509">
<ele>232</ele>
<time>2020-08-26T00:16:55Z</time></trkpt>
<trkpt lat="31.821837" lon="34.994412">
<ele>232</ele>
<time>2020-08-26T00:16:57Z</time></trkpt>
<trkpt lat="31.822147" lon="34.99394">
<ele>232</ele>
<time>2020-08-26T00:17:02Z</time></trkpt>
<trkpt lat="31.822395" lon="34.993691">
<ele>228</ele>
<time>2020-08-26T00:17:07Z</time></trkpt>
<trkpt lat="31.822467" lon="34.993595">
<ele>227</ele>
<time>2020-08-26T00:17:10Z</time></trkpt>
<trkpt lat="31.822518" lon="34.993483">
<ele>226</ele>
<time>2020-08-26T00:17:12Z</time></trkpt>
<trkpt lat="31.822535" lon="34.9934">
<ele>226</ele>
<time>2020-08-26T00:17:14Z</time></trkpt>
<trkpt lat="31.822528" lon="34.993272">
<ele>227</ele>
<time>2020-08-26T00:17:16Z</time></trkpt>
<trkpt lat="31.822407" lon="34.99287">
<ele>232</ele>
<time>2020-08-26T00:17:25Z</time></trkpt>
<trkpt lat="31.822383" lon="34.992616">
<ele>234</ele>
<time>2020-08-26T00:17:30Z</time></trkpt>
<trkpt lat="31.822454" lon="34.991938">
<ele>234</ele>
<time>2020-08-26T00:17:45Z</time></trkpt>
<trkpt lat="31.822512" lon="34.991604">
<ele>234</ele>
<time>2020-08-26T00:17:48Z</time></trkpt>
<trkpt lat="31.822573" lon="34.99142">
<ele>232</ele>
<time>2020-08-26T00:17:50Z</time></trkpt>
<trkpt lat="31.822647" lon="34.991008">
<ele>231</ele>
<time>2020-08-26T00:17:54Z</time></trkpt>
<trkpt lat="31.822681" lon="34.990462">
<ele>230</ele>
<time>2020-08-26T00:18:00Z</time></trkpt>
<trkpt lat="31.822706" lon="34.99034">
<ele>230</ele>
<time>2020-08-26T00:18:01Z</time></trkpt>
<trkpt lat="31.822779" lon="34.990211">
<ele>229</ele>
<time>2020-08-26T00:18:03Z</time></trkpt>
<trkpt lat="31.822834" lon="34.990161">
<ele>228</ele>
<time>2020-08-26T00:18:04Z</time></trkpt>
<trkpt lat="31.82318" lon="34.989939">
<ele>225</ele>
<time>2020-08-26T00:18:07Z</time></trkpt>
<trkpt lat="31.823416" lon="34.989728">
<ele>224</ele>
<time>2020-08-26T00:18:09Z</time></trkpt>
<trkpt lat="31.823523" lon="34.989602">
<ele>223</ele>
<time>2020-08-26T00:18:10Z</time></trkpt>
<trkpt lat="31.823642" lon="34.989391">
<ele>223</ele>
<time>2020-08-26T00:18:14Z</time></trkpt>
<trkpt lat="31.823698" lon="34.989236">
<ele>223</ele>
<time>2020-08-26T00:18:16Z</time></trkpt>
<trkpt lat="31.823721" lon="34.989051">
<ele>224</ele>
<time>2020-08-26T00:18:19Z</time></trkpt>
<trkpt lat="31.82372" lon="34.988417">
<ele>225</ele>
<time>2020-08-26T00:18:32Z</time></trkpt>
<trkpt lat="31.823644" lon="34.987624">
<ele>230</ele>
<time>2020-08-26T00:18:51Z</time></trkpt>
<trkpt lat="31.823641" lon="34.987466">
<ele>231</ele>
<time>2020-08-26T00:18:52Z</time></trkpt>
<trkpt lat="31.823677" lon="34.987316">
<ele>231</ele>
<time>2020-08-26T00:18:53Z</time></trkpt>
<trkpt lat="31.82372" lon="34.987237">
<ele>230</ele>
<time>2020-08-26T00:18:54Z</time></trkpt>
<trkpt lat="31.823773" lon="34.987182">
<ele>229</ele>
<time>2020-08-26T00:18:55Z</time></trkpt>
<trkpt lat="31.824055" lon="34.987003">
<ele>224</ele>
<time>2020-08-26T00:18:57Z</time></trkpt>
<trkpt lat="31.824192" lon="34.986854">
<ele>222</ele>
<time>2020-08-26T00:18:59Z</time></trkpt>
<trkpt lat="31.82425" lon="34.986753">
<ele>222</ele>
<time>2020-08-26T00:19:00Z</time></trkpt>
<trkpt lat="31.82425" lon="34.986753">
<ele>222</ele>
<time>2020-08-26T00:19:00Z</time></trkpt>
<trkpt lat="31.824542" lon="34.986086">
<ele>219</ele>
<time>2020-08-26T00:19:04Z</time></trkpt>
<trkpt lat="31.824648" lon="34.985903">
<ele>218</ele>
<time>2020-08-26T00:19:05Z</time></trkpt>
<trkpt lat="31.824973" lon="34.985471">
<ele>212</ele>
<time>2020-08-26T00:19:07Z</time></trkpt>
<trkpt lat="31.825054" lon="34.985332">
<ele>210</ele>
<time>2020-08-26T00:19:08Z</time></trkpt>
<trkpt lat="31.825108" lon="34.985188">
<ele>209</ele>
<time>2020-08-26T00:19:08Z</time></trkpt>
<trkpt lat="31.825205" lon="34.984813">
<ele>207</ele>
<time>2020-08-26T00:19:10Z</time></trkpt>
<trkpt lat="31.825209" lon="34.984721">
<ele>207</ele>
<time>2020-08-26T00:19:11Z</time></trkpt>
<trkpt lat="31.82518" lon="34.984646">
<ele>207</ele>
<time>2020-08-26T00:19:12Z</time></trkpt>
<trkpt lat="31.825054" lon="34.984499">
<ele>208</ele>
<time>2020-08-26T00:19:17Z</time></trkpt>
<trkpt lat="31.824715" lon="34.984212">
<ele>211</ele>
<time>2020-08-26T00:19:29Z</time></trkpt>
<trkpt lat="31.824582" lon="34.984034">
<ele>211</ele>
<time>2020-08-26T00:19:35Z</time></trkpt>
<trkpt lat="31.824483" lon="34.983743">
<ele>211</ele>
<time>2020-08-26T00:19:39Z</time></trkpt>
<trkpt lat="31.824416" lon="34.98342">
<ele>209</ele>
<time>2020-08-26T00:19:42Z</time></trkpt>
<trkpt lat="31.824315" lon="34.982609">
<ele>209</ele>
<time>2020-08-26T00:19:52Z</time></trkpt>
<trkpt lat="31.82431" lon="34.982142">
<ele>208</ele>
<time>2020-08-26T00:19:57Z</time></trkpt>
<trkpt lat="31.82431" lon="34.982142">
<ele>208</ele>
<time>2020-08-26T00:19:57Z</time></trkpt>
<trkpt lat="31.824285" lon="34.980766">
<ele>204</ele>
<time>2020-08-26T00:20:11Z</time></trkpt>
<trkpt lat="31.824309" lon="34.980477">
<ele>204</ele>
<time>2020-08-26T00:20:14Z</time></trkpt>
<trkpt lat="31.82434" lon="34.980355">
<ele>203</ele>
<time>2020-08-26T00:20:15Z</time></trkpt>
<trkpt lat="31.824026" lon="34.980313">
<ele>205</ele>
<time>2020-08-26T00:20:25Z</time></trkpt>
<trkpt lat="31.82374" lon="34.980371">
<ele>207</ele>
<time>2020-08-26T00:20:36Z</time></trkpt>
<trkpt lat="31.823482" lon="34.980355">
<ele>209</ele>
<time>2020-08-26T00:20:45Z</time></trkpt>
<trkpt lat="31.823134" lon="34.980308">
<ele>212</ele>
<time>2020-08-26T00:20:58Z</time></trkpt>
<trkpt lat="31.82248" lon="34.980155">
<ele>217</ele>
<time>2020-08-26T00:21:24Z</time></trkpt>
<trkpt lat="31.822394" lon="34.980157">
<ele>218</ele>
<time>2020-08-26T00:21:27Z</time></trkpt>
<trkpt lat="31.822394" lon="34.980157">
<ele>218</ele>
<time>2020-08-26T00:21:27Z</time></trkpt>
<trkpt lat="31.822339" lon="34.980158">
<ele>218</ele>
<time>2020-08-26T00:21:30Z</time></trkpt>
<trkpt lat="31.822017" lon="34.98027">
<ele>222</ele>
<time>2020-08-26T00:21:44Z</time></trkpt>
<trkpt lat="31.821729" lon="34.980441">
<ele>225</ele>
<time>2020-08-26T00:21:55Z</time></trkpt>
<trkpt lat="31.821693" lon="34.980476">
<ele>225</ele>
<time>2020-08-26T00:21:56Z</time></trkpt>
<trkpt lat="31.821669" lon="34.980558">
<ele>226</ele>
<time>2020-08-26T00:21:58Z</time></trkpt>
<trkpt lat="31.821682" lon="34.980652">
<ele>226</ele>
<time>2020-08-26T00:22:00Z</time></trkpt>
<trkpt lat="31.821703" lon="34.98071">
<ele>226</ele>
<time>2020-08-26T00:22:01Z</time></trkpt>
<trkpt lat="31.821888" lon="34.981001">
<ele>226</ele>
<time>2020-08-26T00:22:10Z</time></trkpt>
<trkpt lat="31.822113" lon="34.981176">
<ele>225</ele>
<time>2020-08-26T00:22:14Z</time></trkpt>
<trkpt lat="31.82219" lon="34.981265">
<ele>225</ele>
<time>2020-08-26T00:22:15Z</time></trkpt>
<trkpt lat="31.822367" lon="34.981704">
<ele>225</ele>
<time>2020-08-26T00:22:21Z</time></trkpt>
<trkpt lat="31.822438" lon="34.98177">
<ele>225</ele>
<time>2020-08-26T00:22:23Z</time></trkpt>
<trkpt lat="31.822585" lon="34.98185">
<ele>224</ele>
<time>2020-08-26T00:22:24Z</time></trkpt>
<trkpt lat="31.822822" lon="34.981943">
<ele>223</ele>
<time>2020-08-26T00:22:27Z</time></trkpt>
<trkpt lat="31.823073" lon="34.982151">
<ele>222</ele>
<time>2020-08-26T00:22:30Z</time></trkpt>
<trkpt lat="31.823218" lon="34.982234">
<ele>221</ele>
<time>2020-08-26T00:22:33Z</time></trkpt>
<trkpt lat="31.823348" lon="34.982383">
<ele>221</ele>
<time>2020-08-26T00:22:38Z</time></trkpt>
<trkpt lat="31.823363" lon="34.982417">
<ele>221</ele>
<time>2020-08-26T00:22:38Z</time></trkpt>
<trkpt lat="31.823359" lon="34.982608">
<ele>222</ele>
<time>2020-08-26T00:22:42Z</time></trkpt>
<trkpt lat="31.823294" lon="34.982914">
<ele>223</ele>
<time>2020-08-26T00:22:48Z</time></trkpt>
<trkpt lat="31.823294" lon="34.982914">
<ele>223</ele>
<time>2020-08-26T00:22:48Z</time></trkpt>
<trkpt lat="31.82325" lon="34.983027">
<ele>224</ele>
<time>2020-08-26T00:22:52Z</time></trkpt>
<trkpt lat="31.823168" lon="34.98311">
<ele>226</ele>
<time>2020-08-26T00:22:58Z</time></trkpt>
<trkpt lat="31.823083" lon="34.983137">
<ele>227</ele>
<time>2020-08-26T00:23:02Z</time></trkpt>
<trkpt lat="31.823014" lon="34.983116">
<ele>229</ele>
<time>2020-08-26T00:23:06Z</time></trkpt>
<trkpt lat="31.822774" lon="34.982971">
<ele>232</ele>
<time>2020-08-26T00:23:20Z</time></trkpt>
<trkpt lat="31.822633" lon="34.982944">
<ele>234</ele>
<time>2020-08-26T00:23:28Z</time></trkpt>
<trkpt lat="31.822447" lon="34.982817">
<ele>236</ele>
<time>2020-08-26T00:23:40Z</time></trkpt>
<trkpt lat="31.822263" lon="34.98273">
<ele>238</ele>
<time>2020-08-26T00:23:50Z</time></trkpt>
<trkpt lat="31.822138" lon="34.982736">
<ele>240</ele>
<time>2020-08-26T00:23:57Z</time></trkpt>
<trkpt lat="31.821996" lon="34.982829">
<ele>243</ele>
<time>2020-08-26T00:24:05Z</time></trkpt>
<trkpt lat="31.821893" lon="34.982857">
<ele>245</ele>
<time>2020-08-26T00:24:11Z</time></trkpt>
<trkpt lat="31.821787" lon="34.982836">
<ele>247</ele>
<time>2020-08-26T00:24:17Z</time></trkpt>
<trkpt lat="31.821258" lon="34.982629">
<ele>252</ele>
<time>2020-08-26T00:24:41Z</time></trkpt>
<trkpt lat="31.820747" lon="34.982531">
<ele>257</ele>
<time>2020-08-26T00:25:04Z</time></trkpt>
<trkpt lat="31.820175" lon="34.982499">
<ele>264</ele>
<time>2020-08-26T00:25:31Z</time></trkpt>
<trkpt lat="31.81985" lon="34.98261">
<ele>269</ele>
<time>2020-08-26T00:25:49Z</time></trkpt>
<trkpt lat="31.819618" lon="34.982619">
<ele>272</ele>
<time>2020-08-26T00:26:01Z</time></trkpt>
<trkpt lat="31.819503" lon="34.982596">
<ele>274</ele>
<time>2020-08-26T00:26:07Z</time></trkpt>
<trkpt lat="31.819244" lon="34.982503">
<ele>276</ele>
<time>2020-08-26T00:26:17Z</time></trkpt>
<trkpt lat="31.818836" lon="34.982321">
<ele>278</ele>
<time>2020-08-26T00:26:30Z</time></trkpt>
<trkpt lat="31.818242" lon="34.981971">
<ele>280</ele>
<time>2020-08-26T00:26:51Z</time></trkpt>
<trkpt lat="31.818031" lon="34.981824">
<ele>282</ele>
<time>2020-08-26T00:26:59Z</time></trkpt>
<trkpt lat="31.817902" lon="34.981791">
<ele>284</ele>
<time>2020-08-26T00:27:05Z</time></trkpt>
<trkpt lat="31.817644" lon="34.981837">
<ele>288</ele>
<time>2020-08-26T00:27:20Z</time></trkpt>
<trkpt lat="31.817502" lon="34.98182">
<ele>290</ele>
<time>2020-08-26T00:27:28Z</time></trkpt>
<trkpt lat="31.817247" lon="34.981726">
<ele>293</ele>
<time>2020-08-26T00:27:43Z</time></trkpt>
<trkpt lat="31.817168" lon="34.981725">
<ele>295</ele>
<time>2020-08-26T00:27:48Z</time></trkpt>
<trkpt lat="31.816971" lon="34.981842">
<ele>299</ele>
<time>2020-08-26T00:27:56Z</time></trkpt>
<trkpt lat="31.816906" lon="34.981864">
<ele>300</ele>
<time>2020-08-26T00:27:59Z</time></trkpt>
<trkpt lat="31.816771" lon="34.981815">
<ele>302</ele>
<time>2020-08-26T00:28:05Z</time></trkpt>
<trkpt lat="31.816477" lon="34.981632">
<ele>302</ele>
<time>2020-08-26T00:28:18Z</time></trkpt>
<trkpt lat="31.816172" lon="34.98155">
<ele>302</ele>
<time>2020-08-26T00:28:25Z</time></trkpt>
<trkpt lat="31.816199" lon="34.980596">
<ele>304</ele>
<time>2020-08-26T00:28:42Z</time></trkpt>
<trkpt lat="31.816199" lon="34.980596">
<ele>304</ele>
<time>2020-08-26T00:28:42Z</time></trkpt>
<trkpt lat="31.816208" lon="34.98027">
<ele>305</ele>
<time>2020-08-26T00:28:50Z</time></trkpt>
<trkpt lat="31.816374" lon="34.978769">
<ele>306</ele>
<time>2020-08-26T00:29:13Z</time></trkpt>
<trkpt lat="31.816277" lon="34.978135">
<ele>302</ele>
<time>2020-08-26T00:29:17Z</time></trkpt>
<trkpt lat="31.816069" lon="34.9773">
<ele>294</ele>
<time>2020-08-26T00:29:21Z</time></trkpt>
<trkpt lat="31.815947" lon="34.977392">
<ele>295</ele>
<time>2020-08-26T00:29:22Z</time></trkpt>
<trkpt lat="31.815755" lon="34.977434">
<ele>295</ele>
<time>2020-08-26T00:29:23Z</time></trkpt>
<trkpt lat="31.815647" lon="34.977434">
<ele>294</ele>
<time>2020-08-26T00:29:23Z</time></trkpt>
<trkpt lat="31.815513" lon="34.977372">
<ele>293</ele>
<time>2020-08-26T00:29:24Z</time></trkpt>
<trkpt lat="31.81541" lon="34.977225">
<ele>291</ele>
<time>2020-08-26T00:29:24Z</time></trkpt>
<trkpt lat="31.815343" lon="34.976985">
<ele>287</ele>
<time>2020-08-26T00:29:25Z</time></trkpt>
<trkpt lat="31.815264" lon="34.976772">
<ele>285</ele>
<time>2020-08-26T00:29:25Z</time></trkpt>
<trkpt lat="31.815227" lon="34.976725">
<ele>284</ele>
<time>2020-08-26T00:29:25Z</time></trkpt>
<trkpt lat="31.815148" lon="34.976676">
<ele>283</ele>
<time>2020-08-26T00:29:25Z</time></trkpt>
<trkpt lat="31.815095" lon="34.976663">
<ele>282</ele>
<time>2020-08-26T00:29:25Z</time></trkpt>
<trkpt lat="31.814908" lon="34.976663">
<ele>281</ele>
<time>2020-08-26T00:29:26Z</time></trkpt>
<trkpt lat="31.814131" lon="34.976677">
<ele>274</ele>
<time>2020-08-26T00:29:28Z</time></trkpt>
<trkpt lat="31.814131" lon="34.976677">
<ele>274</ele>
<time>2020-08-26T00:29:28Z</time></trkpt>
<trkpt lat="31.813986" lon="34.97664">
<ele>273</ele>
<time>2020-08-26T00:29:29Z</time></trkpt>
<trkpt lat="31.81387" lon="34.976581">
<ele>272</ele>
<time>2020-08-26T00:29:29Z</time></trkpt>
<trkpt lat="31.813727" lon="34.976454">
<ele>270</ele>
<time>2020-08-26T00:29:29Z</time></trkpt>
<trkpt lat="31.813546" lon="34.976139">
<ele>266</ele>
<time>2020-08-26T00:29:29Z</time></trkpt>
<trkpt lat="31.813451" lon="34.976012">
<ele>263</ele>
<time>2020-08-26T00:29:28Z</time></trkpt>
<trkpt lat="31.813202" lon="34.975804">
<ele>259</ele>
<time>2020-08-26T00:29:29Z</time></trkpt>
<trkpt lat="31.812689" lon="34.975544">
<ele>255</ele>
<time>2020-08-26T00:29:32Z</time></trkpt>
<trkpt lat="31.812601" lon="34.975522">
<ele>254</ele>
<time>2020-08-26T00:29:32Z</time></trkpt>
<trkpt lat="31.812434" lon="34.975442">
<ele>252</ele>
<time>2020-08-26T00:29:32Z</time></trkpt>
<trkpt lat="31.811743" lon="34.975273">
<ele>244</ele>
<time>2020-08-26T00:29:32Z</time></trkpt>
<trkpt lat="31.811602" lon="34.975221">
<ele>243</ele>
<time>2020-08-26T00:29:33Z</time></trkpt>
<trkpt lat="31.811395" lon="34.975094">
<ele>240</ele>
<time>2020-08-26T00:29:33Z</time></trkpt>
<trkpt lat="31.810657" lon="34.974699">
<ele>233</ele>
<time>2020-08-26T00:29:35Z</time></trkpt>
<trkpt lat="31.810468" lon="34.974577">
<ele>231</ele>
<time>2020-08-26T00:29:36Z</time></trkpt>
<trkpt lat="31.810182" lon="34.97436">
<ele>228</ele>
<time>2020-08-26T00:29:38Z</time></trkpt>
<trkpt lat="31.809918" lon="34.974103">
<ele>226</ele>
<time>2020-08-26T00:29:41Z</time></trkpt>
<trkpt lat="31.809777" lon="34.973989">
<ele>225</ele>
<time>2020-08-26T00:29:42Z</time></trkpt>
<trkpt lat="31.809739" lon="34.973931">
<ele>225</ele>
<time>2020-08-26T00:29:43Z</time></trkpt>
<trkpt lat="31.809734" lon="34.973895">
<ele>225</ele>
<time>2020-08-26T00:29:44Z</time></trkpt>
<trkpt lat="31.809734" lon="34.973895">
<ele>225</ele>
<time>2020-08-26T00:29:44Z</time></trkpt>
<trkpt lat="31.809711" lon="34.973711">
<ele>225</ele>
<time>2020-08-26T00:29:47Z</time></trkpt>
<trkpt lat="31.80981" lon="34.974786">
<ele>228</ele>
<time>2020-08-26T00:30:09Z</time></trkpt>
<trkpt lat="31.809867" lon="34.975076">
<ele>229</ele>
<time>2020-08-26T00:30:16Z</time></trkpt>
<trkpt lat="31.810076" lon="34.975933">
<ele>232</ele>
<time>2020-08-26T00:30:38Z</time></trkpt>
<trkpt lat="31.810172" lon="34.97669">
<ele>236</ele>
<time>2020-08-26T00:30:58Z</time></trkpt>
<trkpt lat="31.81029" lon="34.977442">
<ele>241</ele>
<time>2020-08-26T00:31:19Z</time></trkpt>
<trkpt lat="31.810379" lon="34.977843">
<ele>242</ele>
<time>2020-08-26T00:31:29Z</time></trkpt>
<trkpt lat="31.810546" lon="34.97881">
<ele>246</ele>
<time>2020-08-26T00:31:54Z</time></trkpt>
<trkpt lat="31.810708" lon="34.979328">
<ele>248</ele>
<time>2020-08-26T00:32:08Z</time></trkpt>
<trkpt lat="31.810865" lon="34.97971">
<ele>249</ele>
<time>2020-08-26T00:32:19Z</time></trkpt>
<trkpt lat="31.810939" lon="34.980015">
<ele>251</ele>
<time>2020-08-26T00:32:27Z</time></trkpt>
<trkpt lat="31.81104" lon="34.980808">
<ele>255</ele>
<time>2020-08-26T00:32:47Z</time></trkpt>
<trkpt lat="31.811041" lon="34.981005">
<ele>256</ele>
<time>2020-08-26T00:32:52Z</time></trkpt>
<trkpt lat="31.811004" lon="34.981255">
<ele>257</ele>
<time>2020-08-26T00:32:58Z</time></trkpt>
<trkpt lat="31.810972" lon="34.981376">
<ele>258</ele>
<time>2020-08-26T00:33:01Z</time></trkpt>
<trkpt lat="31.810928" lon="34.981539">
<ele>259</ele>
<time>2020-08-26T00:33:06Z</time></trkpt>
<trkpt lat="31.810676" lon="34.982197">
<ele>263</ele>
<time>2020-08-26T00:33:29Z</time></trkpt>
<trkpt lat="31.810676" lon="34.982197">
<ele>263</ele>
<time>2020-08-26T00:33:29Z</time></trkpt>
<trkpt lat="31.810538" lon="34.98259">
<ele>266</ele>
<time>2020-08-26T00:33:45Z</time></trkpt>
<trkpt lat="31.810418" lon="34.982801">
<ele>268</ele>
<time>2020-08-26T00:33:52Z</time></trkpt>
<trkpt lat="31.81028" lon="34.982949">
<ele>269</ele>
<time>2020-08-26T00:33:58Z</time></trkpt>
<trkpt lat="31.809857" lon="34.98308">
<ele>272</ele>
<time>2020-08-26T00:34:13Z</time></trkpt>
<trkpt lat="31.809316" lon="34.983945">
<ele>274</ele>
<time>2020-08-26T00:34:34Z</time></trkpt>
<trkpt lat="31.809088" lon="34.984255">
<ele>274</ele>
<time>2020-08-26T00:34:45Z</time></trkpt>
<trkpt lat="31.808683" lon="34.984811">
<ele>279</ele>
<time>2020-08-26T00:35:05Z</time></trkpt>
<trkpt lat="31.807988" lon="34.985592">
<ele>288</ele>
<time>2020-08-26T00:35:42Z</time></trkpt>
<trkpt lat="31.807795" lon="34.985772">
<ele>291</ele>
<time>2020-08-26T00:35:53Z</time></trkpt>
<trkpt lat="31.807641" lon="34.986108">
<ele>294</ele>
<time>2020-08-26T00:36:06Z</time></trkpt>
<trkpt lat="31.807377" lon="34.986146">
<ele>296</ele>
<time>2020-08-26T00:36:16Z</time></trkpt>
<trkpt lat="31.807355" lon="34.986271">
<ele>296</ele>
<time>2020-08-26T00:36:19Z</time></trkpt>
<trkpt lat="31.807321" lon="34.986354">
<ele>297</ele>
<time>2020-08-26T00:36:22Z</time></trkpt>
<trkpt lat="31.807262" lon="34.986433">
<ele>297</ele>
<time>2020-08-26T00:36:26Z</time></trkpt>
<trkpt lat="31.807152" lon="34.986527">
<ele>298</ele>
<time>2020-08-26T00:36:31Z</time></trkpt>
<trkpt lat="31.807152" lon="34.986527">
<ele>298</ele>
<time>2020-08-26T00:36:31Z</time></trkpt>
<trkpt lat="31.806864" lon="34.986775">
<ele>300</ele>
<time>2020-08-26T00:36:45Z</time></trkpt>
<trkpt lat="31.806633" lon="34.987019">
<ele>303</ele>
<time>2020-08-26T00:36:57Z</time></trkpt>
<trkpt lat="31.806404" lon="34.987213">
<ele>307</ele>
<time>2020-08-26T00:37:08Z</time></trkpt>
<trkpt lat="31.806306" lon="34.987263">
<ele>309</ele>
<time>2020-08-26T00:37:13Z</time></trkpt>
<trkpt lat="31.80619" lon="34.987266">
<ele>311</ele>
<time>2020-08-26T00:37:17Z</time></trkpt>
<trkpt lat="31.806176" lon="34.987509">
<ele>310</ele>
<time>2020-08-26T00:37:25Z</time></trkpt>
<trkpt lat="31.806224" lon="34.98792">
<ele>313</ele>
<time>2020-08-26T00:37:39Z</time></trkpt>
<trkpt lat="31.806208" lon="34.988359">
<ele>317</ele>
<time>2020-08-26T00:37:54Z</time></trkpt>
<trkpt lat="31.806064" lon="34.988737">
<ele>320</ele>
<time>2020-08-26T00:38:08Z</time></trkpt>
<trkpt lat="31.805916" lon="34.98898">
<ele>320</ele>
<time>2020-08-26T00:38:18Z</time></trkpt>
<trkpt lat="31.80563" lon="34.989245">
<ele>324</ele>
<time>2020-08-26T00:38:33Z</time></trkpt>
<trkpt lat="31.805221" lon="34.989701">
<ele>330</ele>
<time>2020-08-26T00:38:54Z</time></trkpt>
<trkpt lat="31.804813" lon="34.989882">
<ele>333</ele>
<time>2020-08-26T00:39:10Z</time></trkpt>
<trkpt lat="31.804559" lon="34.990346">
<ele>339</ele>
<time>2020-08-26T00:39:32Z</time></trkpt>
<trkpt lat="31.804559" lon="34.990346">
<ele>339</ele>
<time>2020-08-26T00:39:32Z</time></trkpt>
<trkpt lat="31.804169" lon="34.990951">
<ele>344</ele>
<time>2020-08-26T00:40:02Z</time></trkpt>
<trkpt lat="31.803924" lon="34.991179">
<ele>349</ele>
<time>2020-08-26T00:40:16Z</time></trkpt>
<trkpt lat="31.803592" lon="34.991069">
<ele>352</ele>
<time>2020-08-26T00:40:28Z</time></trkpt>
<trkpt lat="31.803597" lon="34.991191">
<ele>352</ele>
<time>2020-08-26T00:40:31Z</time></trkpt>
<trkpt lat="31.803659" lon="34.991344">
<ele>353</ele>
<time>2020-08-26T00:40:35Z</time></trkpt>
<trkpt lat="31.803776" lon="34.991473">
<ele>353</ele>
<time>2020-08-26T00:40:39Z</time></trkpt>
<trkpt lat="31.80391" lon="34.99153">
<ele>353</ele>
<time>2020-08-26T00:40:43Z</time></trkpt>
<trkpt lat="31.803773" lon="34.991557">
<ele>354</ele>
<time>2020-08-26T00:40:47Z</time></trkpt>
<trkpt lat="31.803707" lon="34.991629">
<ele>355</ele>
<time>2020-08-26T00:40:50Z</time></trkpt>
<trkpt lat="31.803197" lon="34.992569">
<ele>357</ele>
<time>2020-08-26T00:41:15Z</time></trkpt>
<trkpt lat="31.803054" lon="34.992759">
<ele>357</ele>
<time>2020-08-26T00:41:18Z</time></trkpt>
<trkpt lat="31.803054" lon="34.992759">
<ele>357</ele>
<time>2020-08-26T00:41:18Z</time></trkpt>
<trkpt lat="31.80295" lon="34.992872">
<ele>357</ele>
<time>2020-08-26T00:41:20Z</time></trkpt>
<trkpt lat="31.802687" lon="34.993051">
<ele>358</ele>
<time>2020-08-26T00:41:25Z</time></trkpt>
<trkpt lat="31.802202" lon="34.993278">
<ele>358</ele>
<time>2020-08-26T00:41:36Z</time></trkpt>
<trkpt lat="31.80215" lon="34.993287">
<ele>358</ele>
<time>2020-08-26T00:41:37Z</time></trkpt>
<trkpt lat="31.802002" lon="34.993365">
<ele>357</ele>
<time>2020-08-26T00:41:39Z</time></trkpt>
<trkpt lat="31.801915" lon="34.993392">
<ele>357</ele>
<time>2020-08-26T00:41:40Z</time></trkpt>
<trkpt lat="31.801786" lon="34.993465">
<ele>356</ele>
<time>2020-08-26T00:41:41Z</time></trkpt>
<trkpt lat="31.801658" lon="34.993582">
<ele>356</ele>
<time>2020-08-26T00:41:43Z</time></trkpt>
<trkpt lat="31.801431" lon="34.993934">
<ele>355</ele>
<time>2020-08-26T00:41:48Z</time></trkpt>
<trkpt lat="31.801245" lon="34.994295">
<ele>355</ele>
<time>2020-08-26T00:41:55Z</time></trkpt>
<trkpt lat="31.801137" lon="34.994435">
<ele>355</ele>
<time>2020-08-26T00:41:58Z</time></trkpt>
<trkpt lat="31.800983" lon="34.99458">
<ele>356</ele>
<time>2020-08-26T00:42:02Z</time></trkpt>
<trkpt lat="31.800817" lon="34.994659">
<ele>356</ele>
<time>2020-08-26T00:42:04Z</time></trkpt>
<trkpt lat="31.800693" lon="34.99468">
<ele>356</ele>
<time>2020-08-26T00:42:05Z</time></trkpt>
<trkpt lat="31.800567" lon="34.994679">
<ele>355</ele>
<time>2020-08-26T00:42:07Z</time></trkpt>
<trkpt lat="31.800251" lon="34.994619">
<ele>354</ele>
<time>2020-08-26T00:42:10Z</time></trkpt>
<trkpt lat="31.800125" lon="34.994617">
<ele>353</ele>
<time>2020-08-26T00:42:12Z</time></trkpt>
<trkpt lat="31.799985" lon="34.994642">
<ele>353</ele>
<time>2020-08-26T00:42:17Z</time></trkpt>
<trkpt lat="31.799757" lon="34.994767">
<ele>354</ele>
<time>2020-08-26T00:42:25Z</time></trkpt>
<trkpt lat="31.799577" lon="34.994973">
<ele>357</ele>
<time>2020-08-26T00:42:34Z</time></trkpt>
<trkpt lat="31.799317" lon="34.995378">
<ele>361</ele>
<time>2020-08-26T00:42:49Z</time></trkpt>
<trkpt lat="31.799147" lon="34.995596">
<ele>363</ele>
<time>2020-08-26T00:42:58Z</time></trkpt>
<trkpt lat="31.798796" lon="34.995989">
<ele>364</ele>
<time>2020-08-26T00:43:12Z</time></trkpt>
<trkpt lat="31.798493" lon="34.996283">
<ele>364</ele>
<time>2020-08-26T00:43:21Z</time></trkpt>
<trkpt lat="31.797982" lon="34.996906">
<ele>370</ele>
<time>2020-08-26T00:43:42Z</time></trkpt>
<trkpt lat="31.797742" lon="34.997128">
<ele>370</ele>
<time>2020-08-26T00:43:51Z</time></trkpt>
<trkpt lat="31.797589" lon="34.997238">
<ele>371</ele>
<time>2020-08-26T00:43:57Z</time></trkpt>
<trkpt lat="31.797375" lon="34.997346">
<ele>373</ele>
<time>2020-08-26T00:44:05Z</time></trkpt>
<trkpt lat="31.79728" lon="34.997363">
<ele>374</ele>
<time>2020-08-26T00:44:08Z</time></trkpt>
<trkpt lat="31.79728" lon="34.997363">
<ele>374</ele>
<time>2020-08-26T00:44:08Z</time></trkpt>
<trkpt lat="31.796758" lon="34.997454">
<ele>377</ele>
<time>2020-08-26T00:44:27Z</time></trkpt>
<trkpt lat="31.796507" lon="34.997448">
<ele>379</ele>
<time>2020-08-26T00:44:37Z</time></trkpt>
<trkpt lat="31.796269" lon="34.997359">
<ele>382</ele>
<time>2020-08-26T00:44:47Z</time></trkpt>
<trkpt lat="31.795845" lon="34.99713">
<ele>386</ele>
<time>2020-08-26T00:45:04Z</time></trkpt>
<trkpt lat="31.795515" lon="34.996888">
<ele>388</ele>
<time>2020-08-26T00:45:18Z</time></trkpt>
<trkpt lat="31.795158" lon="34.996677">
<ele>391</ele>
<time>2020-08-26T00:45:29Z</time></trkpt>
<trkpt lat="31.794972" lon="34.9966">
<ele>392</ele>
<time>2020-08-26T00:45:34Z</time></trkpt>
<trkpt lat="31.794903" lon="34.996589">
<ele>392</ele>
<time>2020-08-26T00:45:36Z</time></trkpt>
<trkpt lat="31.79481" lon="34.996597">
<ele>391</ele>
<time>2020-08-26T00:45:38Z</time></trkpt>
<trkpt lat="31.794592" lon="34.996696">
<ele>391</ele>
<time>2020-08-26T00:45:42Z</time></trkpt>
<trkpt lat="31.794295" lon="34.996891">
<ele>391</ele>
<time>2020-08-26T00:45:47Z</time></trkpt>
<trkpt lat="31.794015" lon="34.997028">
<ele>390</ele>
<time>2020-08-26T00:45:51Z</time></trkpt>
<trkpt lat="31.793733" lon="34.997193">
<ele>389</ele>
<time>2020-08-26T00:45:54Z</time></trkpt>
<trkpt lat="31.793089" lon="34.99745">
<ele>386</ele>
<time>2020-08-26T00:46:01Z</time></trkpt>
<trkpt lat="31.792992" lon="34.99751">
<ele>387</ele>
<time>2020-08-26T00:46:03Z</time></trkpt>
<trkpt lat="31.792992" lon="34.99751">
<ele>387</ele>
<time>2020-08-26T00:46:03Z</time></trkpt>
<trkpt lat="31.792835" lon="34.997607">
<ele>386</ele>
<time>2020-08-26T00:46:06Z</time></trkpt>
<trkpt lat="31.792566" lon="34.997727">
<ele>386</ele>
<time>2020-08-26T00:46:11Z</time></trkpt>
<trkpt lat="31.792443" lon="34.997752">
<ele>386</ele>
<time>2020-08-26T00:46:12Z</time></trkpt>
<trkpt lat="31.792173" lon="34.997755">
<ele>386</ele>
<time>2020-08-26T00:46:15Z</time></trkpt>
<trkpt lat="31.791963" lon="34.997669">
<ele>385</ele>
<time>2020-08-26T00:46:17Z</time></trkpt>
<trkpt lat="31.792098" lon="34.997501">
<ele>383</ele>
<time>2020-08-26T00:46:20Z</time></trkpt>
<trkpt lat="31.792232" lon="34.997194">
<ele>380</ele>
<time>2020-08-26T00:46:20Z</time></trkpt>
<trkpt lat="31.792324" lon="34.997056">
<ele>378</ele>
<time>2020-08-26T00:46:20Z</time></trkpt>
<trkpt lat="31.792475" lon="34.996928">
<ele>376</ele>
<time>2020-08-26T00:46:20Z</time></trkpt>
<trkpt lat="31.792827" lon="34.996541">
<ele>372</ele>
<time>2020-08-26T00:46:22Z</time></trkpt>
<trkpt lat="31.793001" lon="34.996331">
<ele>370</ele>
<time>2020-08-26T00:46:23Z</time></trkpt>
<trkpt lat="31.793255" lon="34.995977">
<ele>365</ele>
<time>2020-08-26T00:46:24Z</time></trkpt>
<trkpt lat="31.793255" lon="34.995977">
<ele>365</ele>
<time>2020-08-26T00:46:24Z</time></trkpt>
<trkpt lat="31.7933" lon="34.995914">
<ele>364</ele>
<time>2020-08-26T00:46:25Z</time></trkpt>
<trkpt lat="31.793522" lon="34.995353">
<ele>361</ele>
<time>2020-08-26T00:46:27Z</time></trkpt>
<trkpt lat="31.793773" lon="34.994843">
<ele>357</ele>
<time>2020-08-26T00:46:30Z</time></trkpt>
<trkpt lat="31.793823" lon="34.994709">
<ele>356</ele>
<time>2020-08-26T00:46:30Z</time></trkpt>
<trkpt lat="31.794004" lon="34.994007">
<ele>349</ele>
<time>2020-08-26T00:46:34Z</time></trkpt>
<trkpt lat="31.794378" lon="34.992959">
<ele>342</ele>
<time>2020-08-26T00:46:43Z</time></trkpt>
<trkpt lat="31.794445" lon="34.992655">
<ele>340</ele>
<time>2020-08-26T00:46:46Z</time></trkpt>
<trkpt lat="31.794492" lon="34.992346">
<ele>338</ele>
<time>2020-08-26T00:46:47Z</time></trkpt>
<trkpt lat="31.794587" lon="34.992087">
<ele>336</ele>
<time>2020-08-26T00:46:48Z</time></trkpt>
<trkpt lat="31.794771" lon="34.991715">
<ele>332</ele>
<time>2020-08-26T00:46:50Z</time></trkpt>
<trkpt lat="31.794977" lon="34.991385">
<ele>329</ele>
<time>2020-08-26T00:46:52Z</time></trkpt>
<trkpt lat="31.795465" lon="34.990712">
<ele>324</ele>
<time>2020-08-26T00:46:56Z</time></trkpt>
<trkpt lat="31.79565" lon="34.990484">
<ele>320</ele>
<time>2020-08-26T00:46:58Z</time></trkpt>
<trkpt lat="31.795876" lon="34.990158">
<ele>313</ele>
<time>2020-08-26T00:47:01Z</time></trkpt>
<trkpt lat="31.796023" lon="34.989853">
<ele>311</ele>
<time>2020-08-26T00:47:02Z</time></trkpt>
<trkpt lat="31.796291" lon="34.989392">
<ele>308</ele>
<time>2020-08-26T00:47:05Z</time></trkpt>
<trkpt lat="31.796415" lon="34.989265">
<ele>306</ele>
<time>2020-08-26T00:47:06Z</time></trkpt>
<trkpt lat="31.796955" lon="34.988834">
<ele>304</ele>
<time>2020-08-26T00:47:10Z</time></trkpt>
<trkpt lat="31.796955" lon="34.988834">
<ele>304</ele>
<time>2020-08-26T00:47:10Z</time></trkpt>
<trkpt lat="31.797367" lon="34.988633">
<ele>301</ele>
<time>2020-08-26T00:47:13Z</time></trkpt>
<trkpt lat="31.797686" lon="34.988534">
<ele>297</ele>
<time>2020-08-26T00:47:14Z</time></trkpt>
<trkpt lat="31.798114" lon="34.988496">
<ele>292</ele>
<time>2020-08-26T00:47:14Z</time></trkpt>
<trkpt lat="31.798352" lon="34.988527">
<ele>289</ele>
<time>2020-08-26T00:47:15Z</time></trkpt>
<trkpt lat="31.798391" lon="34.988401">
<ele>288</ele>
<time>2020-08-26T00:47:16Z</time></trkpt>
<trkpt lat="31.798449" lon="34.988294">
<ele>289</ele>
<time>2020-08-26T00:47:17Z</time></trkpt>
<trkpt lat="31.798633" lon="34.988091">
<ele>290</ele>
<time>2020-08-26T00:47:21Z</time></trkpt>
<trkpt lat="31.798721" lon="34.987956">
<ele>290</ele>
<time>2020-08-26T00:47:24Z</time></trkpt>
<trkpt lat="31.799308" lon="34.986642">
<ele>285</ele>
<time>2020-08-26T00:47:37Z</time></trkpt>
<trkpt lat="31.80004" lon="34.985541">
<ele>272</ele>
<time>2020-08-26T00:47:42Z</time></trkpt>
<trkpt lat="31.80015" lon="34.985322">
<ele>271</ele>
<time>2020-08-26T00:47:42Z</time></trkpt>
<trkpt lat="31.800189" lon="34.985212">
<ele>271</ele>
<time>2020-08-26T00:47:43Z</time></trkpt>
<trkpt lat="31.800189" lon="34.985212">
<ele>271</ele>
<time>2020-08-26T00:47:43Z</time></trkpt>
<trkpt lat="31.800455" lon="34.984461">
<ele>269</ele>
<time>2020-08-26T00:47:52Z</time></trkpt>
<trkpt lat="31.800538" lon="34.984181">
<ele>268</ele>
<time>2020-08-26T00:47:53Z</time></trkpt>
<trkpt lat="31.800675" lon="34.983521">
<ele>262</ele>
<time>2020-08-26T00:47:55Z</time></trkpt>
<trkpt lat="31.800667" lon="34.98297">
<ele>259</ele>
<time>2020-08-26T00:47:59Z</time></trkpt>
<trkpt lat="31.800703" lon="34.982208">
<ele>255</ele>
<time>2020-08-26T00:48:04Z</time></trkpt>
<trkpt lat="31.800728" lon="34.981997">
<ele>254</ele>
<time>2020-08-26T00:48:05Z</time></trkpt>
<trkpt lat="31.800706" lon="34.981702">
<ele>253</ele>
<time>2020-08-26T00:48:07Z</time></trkpt>
<trkpt lat="31.800686" lon="34.98162">
<ele>252</ele>
<time>2020-08-26T00:48:08Z</time></trkpt>
<trkpt lat="31.80037" lon="34.981055">
<ele>251</ele>
<time>2020-08-26T00:48:14Z</time></trkpt>
<trkpt lat="31.80028" lon="34.980823">
<ele>249</ele>
<time>2020-08-26T00:48:16Z</time></trkpt>
<trkpt lat="31.800251" lon="34.9807">
<ele>249</ele>
<time>2020-08-26T00:48:18Z</time></trkpt>
<trkpt lat="31.80012" lon="34.980449">
<ele>248</ele>
<time>2020-08-26T00:48:21Z</time></trkpt>
<trkpt lat="31.799986" lon="34.980148">
<ele>247</ele>
<time>2020-08-26T00:48:25Z</time></trkpt>
<trkpt lat="31.799883" lon="34.979785">
<ele>247</ele>
<time>2020-08-26T00:48:28Z</time></trkpt>
<trkpt lat="31.799939" lon="34.979493">
<ele>246</ele>
<time>2020-08-26T00:48:31Z</time></trkpt>
<trkpt lat="31.79999" lon="34.979341">
<ele>245</ele>
<time>2020-08-26T00:48:32Z</time></trkpt>
<trkpt lat="31.80002" lon="34.979175">
<ele>244</ele>
<time>2020-08-26T00:48:33Z</time></trkpt>
<trkpt lat="31.80014" lon="34.978966">
<ele>243</ele>
<time>2020-08-26T00:48:35Z</time></trkpt>
<trkpt lat="31.800549" lon="34.978373">
<ele>239</ele>
<time>2020-08-26T00:48:40Z</time></trkpt>
<trkpt lat="31.800587" lon="34.978186">
<ele>237</ele>
<time>2020-08-26T00:48:41Z</time></trkpt>
<trkpt lat="31.800433" lon="34.977465">
<ele>234</ele>
<time>2020-08-26T00:48:47Z</time></trkpt>
<trkpt lat="31.800453" lon="34.977445">
<ele>234</ele>
<time>2020-08-26T00:48:47Z</time></trkpt>
<trkpt lat="31.800453" lon="34.977445">
<ele>234</ele>
<time>2020-08-26T00:48:47Z</time></trkpt>
<trkpt lat="31.800273" lon="34.977566">
<ele>234</ele>
<time>2020-08-26T00:48:51Z</time></trkpt>
<trkpt lat="31.800083" lon="34.977599">
<ele>235</ele>
<time>2020-08-26T00:48:55Z</time></trkpt>
<trkpt lat="31.799932" lon="34.977539">
<ele>235</ele>
<time>2020-08-26T00:48:58Z</time></trkpt>
<trkpt lat="31.799827" lon="34.977469">
<ele>235</ele>
<time>2020-08-26T00:49:00Z</time></trkpt>
<trkpt lat="31.799686" lon="34.977328">
<ele>235</ele>
<time>2020-08-26T00:49:04Z</time></trkpt>
<trkpt lat="31.799235" lon="34.976724">
<ele>234</ele>
<time>2020-08-26T00:49:13Z</time></trkpt>
<trkpt lat="31.799014" lon="34.976389">
<ele>233</ele>
<time>2020-08-26T00:49:18Z</time></trkpt>
<trkpt lat="31.798832" lon="34.976158">
<ele>232</ele>
<time>2020-08-26T00:49:22Z</time></trkpt>
<trkpt lat="31.798615" lon="34.975956">
<ele>232</ele>
<time>2020-08-26T00:49:25Z</time></trkpt>
<trkpt lat="31.798438" lon="34.975857">
<ele>233</ele>
<time>2020-08-26T00:49:28Z</time></trkpt>
<trkpt lat="31.798328" lon="34.975818">
<ele>233</ele>
<time>2020-08-26T00:49:30Z</time></trkpt>
<trkpt lat="31.798187" lon="34.975797">
<ele>232</ele>
<time>2020-08-26T00:49:32Z</time></trkpt>
<trkpt lat="31.798016" lon="34.975802">
<ele>232</ele>
<time>2020-08-26T00:49:35Z</time></trkpt>
<trkpt lat="31.79749" lon="34.976019">
<ele>232</ele>
<time>2020-08-26T00:49:43Z</time></trkpt>
<trkpt lat="31.796282" lon="34.977139">
<ele>226</ele>
<time>2020-08-26T00:50:00Z</time></trkpt>
<trkpt lat="31.796168" lon="34.977222">
<ele>226</ele>
<time>2020-08-26T00:50:01Z</time></trkpt>
<trkpt lat="31.795968" lon="34.977279">
<ele>224</ele>
<time>2020-08-26T00:50:02Z</time></trkpt>
<trkpt lat="31.795849" lon="34.977271">
<ele>223</ele>
<time>2020-08-26T00:50:03Z</time></trkpt>
<trkpt lat="31.795755" lon="34.977232">
<ele>222</ele>
<time>2020-08-26T00:50:04Z</time></trkpt>
<trkpt lat="31.795755" lon="34.977233">
<ele>222</ele>
<time>2020-08-26T00:50:04Z</time></trkpt>
<trkpt lat="31.795629" lon="34.977182">
<ele>221</ele>
<time>2020-08-26T00:50:05Z</time></trkpt>
<trkpt lat="31.795318" lon="34.976957">
<ele>219</ele>
<time>2020-08-26T00:50:08Z</time></trkpt>
<trkpt lat="31.795279" lon="34.976467">
<ele>218</ele>
<time>2020-08-26T00:50:15Z</time></trkpt>
<trkpt lat="31.795122" lon="34.976356">
<ele>218</ele>
<time>2020-08-26T00:50:20Z</time></trkpt>
<trkpt lat="31.795087" lon="34.976316">
<ele>219</ele>
<time>2020-08-26T00:50:22Z</time></trkpt>
<trkpt lat="31.794872" lon="34.97622">
<ele>221</ele>
<time>2020-08-26T00:50:29Z</time></trkpt>
<trkpt lat="31.794877" lon="34.976158">
<ele>221</ele>
<time>2020-08-26T00:50:30Z</time></trkpt>
<trkpt lat="31.794849" lon="34.976104">
<ele>222</ele>
<time>2020-08-26T00:50:32Z</time></trkpt>
<trkpt lat="31.795214" lon="34.975439">
<ele>220</ele>
<time>2020-08-26T00:50:40Z</time></trkpt>
<trkpt lat="31.7953" lon="34.975326">
<ele>219</ele>
<time>2020-08-26T00:50:41Z</time></trkpt>
<trkpt lat="31.795382" lon="34.975255">
<ele>218</ele>
<time>2020-08-26T00:50:42Z</time></trkpt>
<trkpt lat="31.795341" lon="34.975173">
<ele>219</ele>
<time>2020-08-26T00:50:43Z</time></trkpt>
<trkpt lat="31.795309" lon="34.974987">
<ele>220</ele>
<time>2020-08-26T00:50:45Z</time></trkpt>
<trkpt lat="31.795311" lon="34.974895">
<ele>220</ele>
<time>2020-08-26T00:50:46Z</time></trkpt>
<trkpt lat="31.795358" lon="34.974723">
<ele>219</ele>
<time>2020-08-26T00:50:47Z</time></trkpt>
<trkpt lat="31.795488" lon="34.974506">
<ele>216</ele>
<time>2020-08-26T00:50:50Z</time></trkpt>
<trkpt lat="31.795561" lon="34.974238">
<ele>214</ele>
<time>2020-08-26T00:50:53Z</time></trkpt>
<trkpt lat="31.795604" lon="34.974008">
<ele>213</ele>
<time>2020-08-26T00:50:55Z</time></trkpt>
<trkpt lat="31.795635" lon="34.973693">
<ele>212</ele>
<time>2020-08-26T00:50:58Z</time></trkpt>
<trkpt lat="31.79567" lon="34.972799">
<ele>215</ele>
<time>2020-08-26T00:51:20Z</time></trkpt>
<trkpt lat="31.795632" lon="34.972522">
<ele>218</ele>
<time>2020-08-26T00:51:28Z</time></trkpt>
<trkpt lat="31.795704" lon="34.972281">
<ele>218</ele>
<time>2020-08-26T00:51:32Z</time></trkpt>
<trkpt lat="31.795843" lon="34.972067">
<ele>217</ele>
<time>2020-08-26T00:51:36Z</time></trkpt>
<trkpt lat="31.795945" lon="34.97185">
<ele>218</ele>
<time>2020-08-26T00:51:40Z</time></trkpt>
<trkpt lat="31.796044" lon="34.971534">
<ele>217</ele>
<time>2020-08-26T00:51:44Z</time></trkpt>
<trkpt lat="31.796016" lon="34.971227">
<ele>216</ele>
<time>2020-08-26T00:51:48Z</time></trkpt>
<trkpt lat="31.795965" lon="34.971069">
<ele>216</ele>
<time>2020-08-26T00:51:51Z</time></trkpt>
<trkpt lat="31.795798" lon="34.970825">
<ele>218</ele>
<time>2020-08-26T00:51:55Z</time></trkpt>
<trkpt lat="31.795437" lon="34.970385">
<ele>221</ele>
<time>2020-08-26T00:52:08Z</time></trkpt>
<trkpt lat="31.795313" lon="34.970137">
<ele>221</ele>
<time>2020-08-26T00:52:15Z</time></trkpt>
<trkpt lat="31.795187" lon="34.969977">
<ele>222</ele>
<time>2020-08-26T00:52:23Z</time></trkpt>
<trkpt lat="31.79506" lon="34.96986">
<ele>224</ele>
<time>2020-08-26T00:52:32Z</time></trkpt>
<trkpt lat="31.794794" lon="34.969726">
<ele>228</ele>
<time>2020-08-26T00:52:48Z</time></trkpt>
<trkpt lat="31.794514" lon="34.969692">
<ele>234</ele>
<time>2020-08-26T00:53:04Z</time></trkpt>
<trkpt lat="31.794514" lon="34.969692">
<ele>234</ele>
<time>2020-08-26T00:53:04Z</time></trkpt>
<trkpt lat="31.794409" lon="34.969663">
<ele>236</ele>
<time>2020-08-26T00:53:07Z</time></trkpt>
<trkpt lat="31.794303" lon="34.969594">
<ele>237</ele>
<time>2020-08-26T00:53:11Z</time></trkpt>
<trkpt lat="31.794222" lon="34.969477">
<ele>238</ele>
<time>2020-08-26T00:53:15Z</time></trkpt>
<trkpt lat="31.79417" lon="34.969353">
<ele>238</ele>
<time>2020-08-26T00:53:19Z</time></trkpt>
<trkpt lat="31.794147" lon="34.969217">
<ele>238</ele>
<time>2020-08-26T00:53:23Z</time></trkpt>
<trkpt lat="31.794248" lon="34.968318">
<ele>239</ele>
<time>2020-08-26T00:53:40Z</time></trkpt>
<trkpt lat="31.79425" lon="34.96786">
<ele>240</ele>
<time>2020-08-26T00:53:48Z</time></trkpt>
<trkpt lat="31.794275" lon="34.967505">
<ele>240</ele>
<time>2020-08-26T00:53:54Z</time></trkpt>
<trkpt lat="31.794253" lon="34.967089">
<ele>240</ele>
<time>2020-08-26T00:54:00Z</time></trkpt>
<trkpt lat="31.794264" lon="34.966952">
<ele>240</ele>
<time>2020-08-26T00:54:00Z</time></trkpt>
<trkpt lat="31.794306" lon="34.966766">
<ele>239</ele>
<time>2020-08-26T00:54:00Z</time></trkpt>
<trkpt lat="31.794482" lon="34.966452">
<ele>233</ele>
<time>2020-08-26T00:54:00Z</time></trkpt>
<trkpt lat="31.794944" lon="34.965448">
<ele>224</ele>
<time>2020-08-26T00:54:04Z</time></trkpt>
<trkpt lat="31.795077" lon="34.965275">
<ele>222</ele>
<time>2020-08-26T00:54:05Z</time></trkpt>
<trkpt lat="31.795325" lon="34.965485">
<ele>219</ele>
<time>2020-08-26T00:54:05Z</time></trkpt>
<trkpt lat="31.795501" lon="34.96552">
<ele>217</ele>
<time>2020-08-26T00:54:05Z</time></trkpt>
<trkpt lat="31.795858" lon="34.965461">
<ele>213</ele>
<time>2020-08-26T00:54:06Z</time></trkpt>
<trkpt lat="31.796018" lon="34.965363">
<ele>212</ele>
<time>2020-08-26T00:54:07Z</time></trkpt>
<trkpt lat="31.796106" lon="34.965337">
<ele>211</ele>
<time>2020-08-26T00:54:07Z</time></trkpt>
<trkpt lat="31.796228" lon="34.965331">
<ele>210</ele>
<time>2020-08-26T00:54:08Z</time></trkpt>
<trkpt lat="31.796412" lon="34.96537">
<ele>208</ele>
<time>2020-08-26T00:54:08Z</time></trkpt>
<trkpt lat="31.79661" lon="34.965383">
<ele>206</ele>
<time>2020-08-26T00:54:09Z</time></trkpt>
<trkpt lat="31.796902" lon="34.965373">
<ele>204</ele>
<time>2020-08-26T00:54:10Z</time></trkpt>
<trkpt lat="31.797114" lon="34.965426">
<ele>202</ele>
<time>2020-08-26T00:54:11Z</time></trkpt>
<trkpt lat="31.79734" lon="34.965524">
<ele>199</ele>
<time>2020-08-26T00:54:14Z</time></trkpt>
<trkpt lat="31.797456" lon="34.965543">
<ele>198</ele>
<time>2020-08-26T00:54:15Z</time></trkpt>
<trkpt lat="31.797609" lon="34.965456">
<ele>198</ele>
<time>2020-08-26T00:54:18Z</time></trkpt>
<trkpt lat="31.797609" lon="34.965456">
<ele>198</ele>
<time>2020-08-26T00:54:18Z</time></trkpt>
<trkpt lat="31.797822" lon="34.965289">
<ele>199</ele>
<time>2020-08-26T00:54:21Z</time></trkpt>
<trkpt lat="31.797988" lon="34.965212">
<ele>200</ele>
<time>2020-08-26T00:54:24Z</time></trkpt>
<trkpt lat="31.798143" lon="34.965117">
<ele>200</ele>
<time>2020-08-26T00:54:27Z</time></trkpt>
<trkpt lat="31.798548" lon="34.964801">
<ele>200</ele>
<time>2020-08-26T00:54:35Z</time></trkpt>
<trkpt lat="31.798873" lon="34.964616">
<ele>199</ele>
<time>2020-08-26T00:54:38Z</time></trkpt>
<trkpt lat="31.79944" lon="34.964445">
<ele>194</ele>
<time>2020-08-26T00:54:41Z</time></trkpt>
<trkpt lat="31.799844" lon="34.964256">
<ele>189</ele>
<time>2020-08-26T00:54:44Z</time></trkpt>
<trkpt lat="31.799939" lon="34.964149">
<ele>187</ele>
<time>2020-08-26T00:54:45Z</time></trkpt>
<trkpt lat="31.800095" lon="34.963746">
<ele>189</ele>
<time>2020-08-26T00:54:49Z</time></trkpt>
<trkpt lat="31.800258" lon="34.962792">
<ele>189</ele>
<time>2020-08-26T00:55:04Z</time></trkpt>
<trkpt lat="31.800272" lon="34.962616">
<ele>189</ele>
<time>2020-08-26T00:55:06Z</time></trkpt>
<trkpt lat="31.800261" lon="34.962497">
<ele>189</ele>
<time>2020-08-26T00:55:08Z</time></trkpt>
<trkpt lat="31.80018" lon="34.962272">
<ele>188</ele>
<time>2020-08-26T00:55:11Z</time></trkpt>
<trkpt lat="31.799903" lon="34.961849">
<ele>189</ele>
<time>2020-08-26T00:55:19Z</time></trkpt>
<trkpt lat="31.799751" lon="34.961468">
<ele>189</ele>
<time>2020-08-26T00:55:26Z</time></trkpt>
<trkpt lat="31.799664" lon="34.961133">
<ele>189</ele>
<time>2020-08-26T00:55:30Z</time></trkpt>
<trkpt lat="31.79955" lon="34.960568">
<ele>187</ele>
<time>2020-08-26T00:55:37Z</time></trkpt>
<trkpt lat="31.79955" lon="34.960568">
<ele>187</ele>
<time>2020-08-26T00:55:37Z</time></trkpt>
<trkpt lat="31.799441" lon="34.960251">
<ele>188</ele>
<time>2020-08-26T00:55:41Z</time></trkpt>
<trkpt lat="31.799321" lon="34.959777">
<ele>187</ele>
<time>2020-08-26T00:55:47Z</time></trkpt>
<trkpt lat="31.799294" lon="34.959614">
<ele>187</ele>
<time>2020-08-26T00:55:49Z</time></trkpt>
<trkpt lat="31.799318" lon="34.959405">
<ele>186</ele>
<time>2020-08-26T00:55:51Z</time></trkpt>
<trkpt lat="31.799401" lon="34.959067">
<ele>183</ele>
<time>2020-08-26T00:55:53Z</time></trkpt>
<trkpt lat="31.799436" lon="34.958847">
<ele>182</ele>
<time>2020-08-26T00:55:55Z</time></trkpt>
<trkpt lat="31.799434" lon="34.958441">
<ele>180</ele>
<time>2020-08-26T00:55:58Z</time></trkpt>
<trkpt lat="31.799368" lon="34.958344">
<ele>180</ele>
<time>2020-08-26T00:55:59Z</time></trkpt>
<trkpt lat="31.799221" lon="34.957974">
<ele>180</ele>
<time>2020-08-26T00:56:05Z</time></trkpt>
<trkpt lat="31.799132" lon="34.957845">
<ele>180</ele>
<time>2020-08-26T00:56:07Z</time></trkpt>
<trkpt lat="31.799035" lon="34.957752">
<ele>180</ele>
<time>2020-08-26T00:56:09Z</time></trkpt>
<trkpt lat="31.798955" lon="34.957702">
<ele>181</ele>
<time>2020-08-26T00:56:12Z</time></trkpt>
<trkpt lat="31.798882" lon="34.957682">
<ele>182</ele>
<time>2020-08-26T00:56:14Z</time></trkpt>
<trkpt lat="31.798803" lon="34.957692">
<ele>182</ele>
<time>2020-08-26T00:56:17Z</time></trkpt>
<trkpt lat="31.7985" lon="34.957846">
<ele>185</ele>
<time>2020-08-26T00:56:28Z</time></trkpt>
<trkpt lat="31.798277" lon="34.958062">
<ele>186</ele>
<time>2020-08-26T00:56:37Z</time></trkpt>
<trkpt lat="31.798277" lon="34.958062">
<ele>186</ele>
<time>2020-08-26T00:56:37Z</time></trkpt>
<trkpt lat="31.798137" lon="34.958198">
<ele>188</ele>
<time>2020-08-26T00:56:44Z</time></trkpt>
<trkpt lat="31.79801" lon="34.958372">
<ele>189</ele>
<time>2020-08-26T00:56:51Z</time></trkpt>
<trkpt lat="31.797797" lon="34.958809">
<ele>192</ele>
<time>2020-08-26T00:57:06Z</time></trkpt>
<trkpt lat="31.797585" lon="34.959172">
<ele>191</ele>
<time>2020-08-26T00:57:13Z</time></trkpt>
<trkpt lat="31.79718" lon="34.959533">
<ele>194</ele>
<time>2020-08-26T00:57:24Z</time></trkpt>
<trkpt lat="31.796974" lon="34.959788">
<ele>196</ele>
<time>2020-08-26T00:57:33Z</time></trkpt>
<trkpt lat="31.796838" lon="34.959896">
<ele>196</ele>
<time>2020-08-26T00:57:38Z</time></trkpt>
<trkpt lat="31.796552" lon="34.960211">
<ele>198</ele>
<time>2020-08-26T00:57:49Z</time></trkpt>
<trkpt lat="31.796236" lon="34.960523">
<ele>200</ele>
<time>2020-08-26T00:57:58Z</time></trkpt>
<trkpt lat="31.796122" lon="34.960654">
<ele>200</ele>
<time>2020-08-26T00:58:02Z</time></trkpt>
<trkpt lat="31.796053" lon="34.960772">
<ele>199</ele>
<time>2020-08-26T00:58:04Z</time></trkpt>
<trkpt lat="31.796027" lon="34.960914">
<ele>199</ele>
<time>2020-08-26T00:58:07Z</time></trkpt>
<trkpt lat="31.795684" lon="34.961064">
<ele>200</ele>
<time>2020-08-26T00:58:14Z</time></trkpt>
<trkpt lat="31.795589" lon="34.961062">
<ele>200</ele>
<time>2020-08-26T00:58:16Z</time></trkpt>
<trkpt lat="31.795464" lon="34.961006">
<ele>200</ele>
<time>2020-08-26T00:58:18Z</time></trkpt>
<trkpt lat="31.795116" lon="34.960755">
<ele>202</ele>
<time>2020-08-26T00:58:31Z</time></trkpt>
<trkpt lat="31.794989" lon="34.960683">
<ele>203</ele>
<time>2020-08-26T00:58:36Z</time></trkpt>
<trkpt lat="31.794834" lon="34.960637">
<ele>205</ele>
<time>2020-08-26T00:58:41Z</time></trkpt>
<trkpt lat="31.794768" lon="34.960653">
<ele>205</ele>
<time>2020-08-26T00:58:43Z</time></trkpt>
<trkpt lat="31.794698" lon="34.960726">
<ele>205</ele>
<time>2020-08-26T00:58:46Z</time></trkpt>
<trkpt lat="31.794558" lon="34.961">
<ele>205</ele>
<time>2020-08-26T00:58:52Z</time></trkpt>
<trkpt lat="31.794558" lon="34.961">
<ele>205</ele>
<time>2020-08-26T00:58:52Z</time></trkpt>
<trkpt lat="31.794496" lon="34.961096">
<ele>205</ele>
<time>2020-08-26T00:58:55Z</time></trkpt>
<trkpt lat="31.794372" lon="34.961175">
<ele>206</ele>
<time>2020-08-26T00:58:58Z</time></trkpt>
<trkpt lat="31.794232" lon="34.961216">
<ele>207</ele>
<time>2020-08-26T00:59:01Z</time></trkpt>
<trkpt lat="31.79405" lon="34.961481">
<ele>208</ele>
<time>2020-08-26T00:59:09Z</time></trkpt>
<trkpt lat="31.793837" lon="34.961727">
<ele>209</ele>
<time>2020-08-26T00:59:18Z</time></trkpt>
<trkpt lat="31.793489" lon="34.962018">
<ele>211</ele>
<time>2020-08-26T00:59:30Z</time></trkpt>
<trkpt lat="31.792878" lon="34.962691">
<ele>215</ele>
<time>2020-08-26T00:59:55Z</time></trkpt>
<trkpt lat="31.792486" lon="34.963019">
<ele>219</ele>
<time>2020-08-26T01:00:13Z</time></trkpt>
<trkpt lat="31.792241" lon="34.963255">
<ele>221</ele>
<time>2020-08-26T01:00:24Z</time></trkpt>
<trkpt lat="31.792018" lon="34.963531">
<ele>222</ele>
<time>2020-08-26T01:00:32Z</time></trkpt>
<trkpt lat="31.791802" lon="34.963747">
<ele>223</ele>
<time>2020-08-26T01:00:40Z</time></trkpt>
<trkpt lat="31.791662" lon="34.963848">
<ele>224</ele>
<time>2020-08-26T01:00:45Z</time></trkpt>
<trkpt lat="31.791445" lon="34.963946">
<ele>226</ele>
<time>2020-08-26T01:00:55Z</time></trkpt>
<trkpt lat="31.791218" lon="34.963974">
<ele>229</ele>
<time>2020-08-26T01:01:04Z</time></trkpt>
<trkpt lat="31.790781" lon="34.9641">
<ele>233</ele>
<time>2020-08-26T01:01:24Z</time></trkpt>
<trkpt lat="31.790622" lon="34.96417">
<ele>235</ele>
<time>2020-08-26T01:01:31Z</time></trkpt>
<trkpt lat="31.790622" lon="34.96417">
<ele>235</ele>
<time>2020-08-26T01:01:31Z</time></trkpt>
<trkpt lat="31.790187" lon="34.964363">
<ele>239</ele>
<time>2020-08-26T01:01:51Z</time></trkpt>
<trkpt lat="31.78964" lon="34.964641">
<ele>245</ele>
<time>2020-08-26T01:02:17Z</time></trkpt>
<trkpt lat="31.789354" lon="34.96473">
<ele>249</ele>
<time>2020-08-26T01:02:30Z</time></trkpt>
<trkpt lat="31.788737" lon="34.9648">
<ele>255</ele>
<time>2020-08-26T01:02:56Z</time></trkpt>
<trkpt lat="31.788076" lon="34.964728">
<ele>262</ele>
<time>2020-08-26T01:03:25Z</time></trkpt>
<trkpt lat="31.787863" lon="34.96482">
<ele>264</ele>
<time>2020-08-26T01:03:35Z</time></trkpt>
<trkpt lat="31.787863" lon="34.96482">
<ele>264</ele>
<time>2020-08-26T01:03:35Z</time></trkpt>
<trkpt lat="31.788076" lon="34.964728">
<ele>262</ele>
<time>2020-08-26T01:03:38Z</time></trkpt>
<trkpt lat="31.788646" lon="34.96439">
<ele>257</ele>
<time>2020-08-26T01:03:41Z</time></trkpt>
<trkpt lat="31.789282" lon="34.963647">
<ele>256</ele>
<time>2020-08-26T01:03:53Z</time></trkpt>
<trkpt lat="31.790248" lon="34.96282">
<ele>250</ele>
<time>2020-08-26T01:04:05Z</time></trkpt>
<trkpt lat="31.790653" lon="34.962273">
<ele>247</ele>
<time>2020-08-26T01:04:10Z</time></trkpt>
<trkpt lat="31.791009" lon="34.961937">
<ele>244</ele>
<time>2020-08-26T01:04:13Z</time></trkpt>
<trkpt lat="31.791009" lon="34.961937">
<ele>244</ele>
<time>2020-08-26T01:04:13Z</time></trkpt>
<trkpt lat="31.791277" lon="34.961653">
<ele>241</ele>
<time>2020-08-26T01:04:14Z</time></trkpt>
<trkpt lat="31.791538" lon="34.961478">
<ele>236</ele>
<time>2020-08-26T01:04:15Z</time></trkpt>
<trkpt lat="31.791581" lon="34.961403">
<ele>235</ele>
<time>2020-08-26T01:04:15Z</time></trkpt>
<trkpt lat="31.791587" lon="34.961321">
<ele>235</ele>
<time>2020-08-26T01:04:15Z</time></trkpt>
<trkpt lat="31.791548" lon="34.961129">
<ele>234</ele>
<time>2020-08-26T01:04:18Z</time></trkpt>
<trkpt lat="31.790986" lon="34.960859">
<ele>238</ele>
<time>2020-08-26T01:04:36Z</time></trkpt>
<trkpt lat="31.790873" lon="34.960833">
<ele>239</ele>
<time>2020-08-26T01:04:39Z</time></trkpt>
<trkpt lat="31.790731" lon="34.960838">
<ele>239</ele>
<time>2020-08-26T01:04:43Z</time></trkpt>
<trkpt lat="31.790487" lon="34.960897">
<ele>240</ele>
<time>2020-08-26T01:04:48Z</time></trkpt>
<trkpt lat="31.790327" lon="34.960896">
<ele>240</ele>
<time>2020-08-26T01:04:52Z</time></trkpt>
<trkpt lat="31.790327" lon="34.960896">
<ele>240</ele>
<time>2020-08-26T01:04:52Z</time></trkpt>
<trkpt lat="31.790176" lon="34.960896">
<ele>241</ele>
<time>2020-08-26T01:04:55Z</time></trkpt>
<trkpt lat="31.789594" lon="34.960971">
<ele>242</ele>
<time>2020-08-26T01:05:05Z</time></trkpt>
<trkpt lat="31.78938" lon="34.960974">
<ele>242</ele>
<time>2020-08-26T01:05:09Z</time></trkpt>
<trkpt lat="31.789027" lon="34.960927">
<ele>241</ele>
<time>2020-08-26T01:05:17Z</time></trkpt>
<trkpt lat="31.788876" lon="34.960936">
<ele>241</ele>
<time>2020-08-26T01:05:21Z</time></trkpt>
<trkpt lat="31.788692" lon="34.960974">
<ele>242</ele>
<time>2020-08-26T01:05:26Z</time></trkpt>
<trkpt lat="31.788354" lon="34.961099">
<ele>245</ele>
<time>2020-08-26T01:05:37Z</time></trkpt>
<trkpt lat="31.788109" lon="34.961215">
<ele>247</ele>
<time>2020-08-26T01:05:46Z</time></trkpt>
<trkpt lat="31.787879" lon="34.961355">
<ele>249</ele>
<time>2020-08-26T01:05:56Z</time></trkpt>
<trkpt lat="31.787268" lon="34.961358">
<ele>250</ele>
<time>2020-08-26T01:06:10Z</time></trkpt>
<trkpt lat="31.786984" lon="34.961392">
<ele>251</ele>
<time>2020-08-26T01:06:16Z</time></trkpt>
<trkpt lat="31.786515" lon="34.9615">
<ele>253</ele>
<time>2020-08-26T01:06:28Z</time></trkpt>
<trkpt lat="31.786127" lon="34.961651">
<ele>254</ele>
<time>2020-08-26T01:06:38Z</time></trkpt>
<trkpt lat="31.785928" lon="34.961699">
<ele>255</ele>
<time>2020-08-26T01:06:40Z</time></trkpt>
<trkpt lat="31.785857" lon="34.961609">
<ele>254</ele>
<time>2020-08-26T01:06:41Z</time></trkpt>
<trkpt lat="31.785781" lon="34.961375">
<ele>253</ele>
<time>2020-08-26T01:06:44Z</time></trkpt>
<trkpt lat="31.785877" lon="34.9609">
<ele>250</ele>
<time>2020-08-26T01:06:52Z</time></trkpt>
<trkpt lat="31.785478" lon="34.961416">
<ele>258</ele>
<time>2020-08-26T01:07:16Z</time></trkpt>
<trkpt lat="31.785395" lon="34.961571">
<ele>259</ele>
<time>2020-08-26T01:07:22Z</time></trkpt>
<trkpt lat="31.785288" lon="34.961685">
<ele>260</ele>
<time>2020-08-26T01:07:29Z</time></trkpt>
<trkpt lat="31.785197" lon="34.961821">
<ele>262</ele>
<time>2020-08-26T01:07:35Z</time></trkpt>
<trkpt lat="31.785197" lon="34.961821">
<ele>262</ele>
<time>2020-08-26T01:07:35Z</time></trkpt>
<trkpt lat="31.785022" lon="34.962082">
<ele>264</ele>
<time>2020-08-26T01:07:47Z</time></trkpt>
<trkpt lat="31.784901" lon="34.962175">
<ele>266</ele>
<time>2020-08-26T01:07:53Z</time></trkpt>
<trkpt lat="31.784792" lon="34.962288">
<ele>268</ele>
<time>2020-08-26T01:07:59Z</time></trkpt>
<trkpt lat="31.784662" lon="34.962361">
<ele>269</ele>
<time>2020-08-26T01:08:05Z</time></trkpt>
<trkpt lat="31.784553" lon="34.962368">
<ele>270</ele>
<time>2020-08-26T01:08:09Z</time></trkpt>
<trkpt lat="31.784348" lon="34.962451">
<ele>272</ele>
<time>2020-08-26T01:08:18Z</time></trkpt>
<trkpt lat="31.784168" lon="34.962473">
<ele>273</ele>
<time>2020-08-26T01:08:25Z</time></trkpt>
<trkpt lat="31.783732" lon="34.962471">
<ele>278</ele>
<time>2020-08-26T01:08:45Z</time></trkpt>
<trkpt lat="31.783588" lon="34.962498">
<ele>279</ele>
<time>2020-08-26T01:08:52Z</time></trkpt>
<trkpt lat="31.783143" lon="34.962677">
<ele>284</ele>
<time>2020-08-26T01:09:10Z</time></trkpt>
<trkpt lat="31.783033" lon="34.962786">
<ele>285</ele>
<time>2020-08-26T01:09:14Z</time></trkpt>
<trkpt lat="31.782948" lon="34.962925">
<ele>285</ele>
<time>2020-08-26T01:09:19Z</time></trkpt>
<trkpt lat="31.782902" lon="34.96304">
<ele>285</ele>
<time>2020-08-26T01:09:22Z</time></trkpt>
<trkpt lat="31.782834" lon="34.96314">
<ele>286</ele>
<time>2020-08-26T01:09:25Z</time></trkpt>
<trkpt lat="31.782623" lon="34.963305">
<ele>286</ele>
<time>2020-08-26T01:09:35Z</time></trkpt>
<trkpt lat="31.782513" lon="34.963417">
<ele>287</ele>
<time>2020-08-26T01:09:41Z</time></trkpt>
<trkpt lat="31.782258" lon="34.963571">
<ele>291</ele>
<time>2020-08-26T01:09:54Z</time></trkpt>
<trkpt lat="31.78216" lon="34.963696">
<ele>293</ele>
<time>2020-08-26T01:10:00Z</time></trkpt>
<trkpt lat="31.782016" lon="34.963821">
<ele>295</ele>
<time>2020-08-26T01:10:07Z</time></trkpt>
<trkpt lat="31.781917" lon="34.963866">
<ele>296</ele>
<time>2020-08-26T01:10:12Z</time></trkpt>
<trkpt lat="31.781775" lon="34.96397">
<ele>297</ele>
<time>2020-08-26T01:10:19Z</time></trkpt>
<trkpt lat="31.780935" lon="34.964629">
<ele>310</ele>
<time>2020-08-26T01:11:07Z</time></trkpt>
<trkpt lat="31.78089" lon="34.964707">
<ele>311</ele>
<time>2020-08-26T01:11:11Z</time></trkpt>
<trkpt lat="31.780587" lon="34.964907">
<ele>315</ele>
<time>2020-08-26T01:11:29Z</time></trkpt>
<trkpt lat="31.780473" lon="34.965007">
<ele>317</ele>
<time>2020-08-26T01:11:36Z</time></trkpt>
<trkpt lat="31.780139" lon="34.965397">
<ele>323</ele>
<time>2020-08-26T01:12:01Z</time></trkpt>
<trkpt lat="31.780055" lon="34.965537">
<ele>324</ele>
<time>2020-08-26T01:12:09Z</time></trkpt>
<trkpt lat="31.779978" lon="34.965728">
<ele>325</ele>
<time>2020-08-26T01:12:18Z</time></trkpt>
<trkpt lat="31.779643" lon="34.966278">
<ele>334</ele>
<time>2020-08-26T01:12:44Z</time></trkpt>
<trkpt lat="31.779473" lon="34.96662">
<ele>336</ele>
<time>2020-08-26T01:12:56Z</time></trkpt>
<trkpt lat="31.779473" lon="34.96662">
<ele>336</ele>
<time>2020-08-26T01:12:56Z</time></trkpt>
<trkpt lat="31.779349" lon="34.967102">
<ele>338</ele>
<time>2020-08-26T01:13:09Z</time></trkpt>
<trkpt lat="31.779294" lon="34.96745">
<ele>339</ele>
<time>2020-08-26T01:13:18Z</time></trkpt>
<trkpt lat="31.779239" lon="34.96768">
<ele>340</ele>
<time>2020-08-26T01:13:24Z</time></trkpt>
<trkpt lat="31.779229" lon="34.967942">
<ele>342</ele>
<time>2020-08-26T01:13:31Z</time></trkpt>
<trkpt lat="31.779239" lon="34.968336">
<ele>346</ele>
<time>2020-08-26T01:13:45Z</time></trkpt>
<trkpt lat="31.779148" lon="34.968986">
<ele>351</ele>
<time>2020-08-26T01:14:08Z</time></trkpt>
<trkpt lat="31.779096" lon="34.969197">
<ele>354</ele>
<time>2020-08-26T01:14:14Z</time></trkpt>
<trkpt lat="31.779012" lon="34.969277">
<ele>356</ele>
<time>2020-08-26T01:14:17Z</time></trkpt>
<trkpt lat="31.778928" lon="34.969215">
<ele>356</ele>
<time>2020-08-26T01:14:20Z</time></trkpt>
<trkpt lat="31.778897" lon="34.969096">
<ele>356</ele>
<time>2020-08-26T01:14:23Z</time></trkpt>
<trkpt lat="31.778846" lon="34.968723">
<ele>354</ele>
<time>2020-08-26T01:14:31Z</time></trkpt>
<trkpt lat="31.778685" lon="34.968015">
<ele>353</ele>
<time>2020-08-26T01:14:40Z</time></trkpt>
<trkpt lat="31.778685" lon="34.968015">
<ele>353</ele>
<time>2020-08-26T01:14:40Z</time></trkpt>
<trkpt lat="31.778551" lon="34.967426">
<ele>353</ele>
<time>2020-08-26T01:14:47Z</time></trkpt>
<trkpt lat="31.778465" lon="34.966909">
<ele>351</ele>
<time>2020-08-26T01:14:53Z</time></trkpt>
<trkpt lat="31.778435" lon="34.966799">
<ele>351</ele>
<time>2020-08-26T01:14:55Z</time></trkpt>
<trkpt lat="31.778276" lon="34.966578">
<ele>352</ele>
<time>2020-08-26T01:15:00Z</time></trkpt>
<trkpt lat="31.778147" lon="34.966498">
<ele>351</ele>
<time>2020-08-26T01:15:03Z</time></trkpt>
<trkpt lat="31.777967" lon="34.966533">
<ele>351</ele>
<time>2020-08-26T01:15:06Z</time></trkpt>
<trkpt lat="31.777472" lon="34.966773">
<ele>357</ele>
<time>2020-08-26T01:15:27Z</time></trkpt>
<trkpt lat="31.77712" lon="34.966878">
<ele>360</ele>
<time>2020-08-26T01:15:43Z</time></trkpt>
<trkpt lat="31.777023" lon="34.96689">
<ele>360</ele>
<time>2020-08-26T01:15:44Z</time></trkpt>
<trkpt lat="31.7767" lon="34.966858">
<ele>360</ele>
<time>2020-08-26T01:15:48Z</time></trkpt>
<trkpt lat="31.7767" lon="34.966858">
<ele>360</ele>
<time>2020-08-26T01:15:48Z</time></trkpt>
<trkpt lat="31.776212" lon="34.96676">
<ele>358</ele>
<time>2020-08-26T01:15:57Z</time></trkpt>
<trkpt lat="31.776083" lon="34.966766">
<ele>358</ele>
<time>2020-08-26T01:16:01Z</time></trkpt>
<trkpt lat="31.776002" lon="34.966804">
<ele>359</ele>
<time>2020-08-26T01:16:04Z</time></trkpt>
<trkpt lat="31.77591" lon="34.966885">
<ele>360</ele>
<time>2020-08-26T01:16:08Z</time></trkpt>
<trkpt lat="31.775858" lon="34.966957">
<ele>361</ele>
<time>2020-08-26T01:16:10Z</time></trkpt>
<trkpt lat="31.77581" lon="34.967066">
<ele>361</ele>
<time>2020-08-26T01:16:14Z</time></trkpt>
<trkpt lat="31.775801" lon="34.967146">
<ele>362</ele>
<time>2020-08-26T01:16:16Z</time></trkpt>
<trkpt lat="31.775816" lon="34.967247">
<ele>363</ele>
<time>2020-08-26T01:16:19Z</time></trkpt>
<trkpt lat="31.775878" lon="34.967385">
<ele>365</ele>
<time>2020-08-26T01:16:24Z</time></trkpt>
<trkpt lat="31.775947" lon="34.967478">
<ele>367</ele>
<time>2020-08-26T01:16:28Z</time></trkpt>
<trkpt lat="31.776257" lon="34.967792">
<ele>369</ele>
<time>2020-08-26T01:16:44Z</time></trkpt>
<trkpt lat="31.776575" lon="34.968169">
<ele>373</ele>
<time>2020-08-26T01:16:59Z</time></trkpt>
<trkpt lat="31.776682" lon="34.968322">
<ele>375</ele>
<time>2020-08-26T01:17:03Z</time></trkpt>
<trkpt lat="31.776807" lon="34.968586">
<ele>374</ele>
<time>2020-08-26T01:17:10Z</time></trkpt>
<trkpt lat="31.776861" lon="34.968814">
<ele>372</ele>
<time>2020-08-26T01:17:14Z</time></trkpt>
<trkpt lat="31.776885" lon="34.969252">
<ele>369</ele>
<time>2020-08-26T01:17:18Z</time></trkpt>
<trkpt lat="31.776985" lon="34.97005">
<ele>371</ele>
<time>2020-08-26T01:17:32Z</time></trkpt>
<trkpt lat="31.776973" lon="34.970254">
<ele>372</ele>
<time>2020-08-26T01:17:37Z</time></trkpt>
<trkpt lat="31.776913" lon="34.970408">
<ele>373</ele>
<time>2020-08-26T01:17:41Z</time></trkpt>
<trkpt lat="31.776798" lon="34.970537">
<ele>374</ele>
<time>2020-08-26T01:17:46Z</time></trkpt>
<trkpt lat="31.776712" lon="34.970589">
<ele>374</ele>
<time>2020-08-26T01:17:48Z</time></trkpt>
<trkpt lat="31.776399" lon="34.970691">
<ele>375</ele>
<time>2020-08-26T01:17:55Z</time></trkpt>
<trkpt lat="31.776178" lon="34.970743">
<ele>375</ele>
<time>2020-08-26T01:18:00Z</time></trkpt>
<trkpt lat="31.775791" lon="34.970798">
<ele>375</ele>
<time>2020-08-26T01:18:07Z</time></trkpt>
<trkpt lat="31.775743" lon="34.970818">
<ele>375</ele>
<time>2020-08-26T01:18:08Z</time></trkpt>
<trkpt lat="31.775743" lon="34.970818">
<ele>375</ele>
<time>2020-08-26T01:18:08Z</time></trkpt>
<trkpt lat="31.775644" lon="34.970861">
<ele>374</ele>
<time>2020-08-26T01:18:09Z</time></trkpt>
<trkpt lat="31.775584" lon="34.97092">
<ele>374</ele>
<time>2020-08-26T01:18:11Z</time></trkpt>
<trkpt lat="31.775523" lon="34.971032">
<ele>374</ele>
<time>2020-08-26T01:18:12Z</time></trkpt>
<trkpt lat="31.775486" lon="34.97117">
<ele>374</ele>
<time>2020-08-26T01:18:14Z</time></trkpt>
<trkpt lat="31.77547" lon="34.971293">
<ele>375</ele>
<time>2020-08-26T01:18:16Z</time></trkpt>
<trkpt lat="31.775476" lon="34.972118">
<ele>379</ele>
<time>2020-08-26T01:18:36Z</time></trkpt>
<trkpt lat="31.775463" lon="34.972285">
<ele>380</ele>
<time>2020-08-26T01:18:40Z</time></trkpt>
<trkpt lat="31.775428" lon="34.972466">
<ele>379</ele>
<time>2020-08-26T01:18:42Z</time></trkpt>
<trkpt lat="31.775211" lon="34.973111">
<ele>378</ele>
<time>2020-08-26T01:18:51Z</time></trkpt>
<trkpt lat="31.775194" lon="34.973255">
<ele>379</ele>
<time>2020-08-26T01:18:53Z</time></trkpt>
<trkpt lat="31.7752" lon="34.973401">
<ele>379</ele>
<time>2020-08-26T01:18:56Z</time></trkpt>
<trkpt lat="31.77524" lon="34.97357">
<ele>378</ele>
<time>2020-08-26T01:18:59Z</time></trkpt>
<trkpt lat="31.775362" lon="34.973799">
<ele>379</ele>
<time>2020-08-26T01:19:05Z</time></trkpt>
<trkpt lat="31.775661" lon="34.974105">
<ele>381</ele>
<time>2020-08-26T01:19:16Z</time></trkpt>
<trkpt lat="31.775838" lon="34.974322">
<ele>383</ele>
<time>2020-08-26T01:19:24Z</time></trkpt>
<trkpt lat="31.775904" lon="34.974481">
<ele>384</ele>
<time>2020-08-26T01:19:29Z</time></trkpt>
<trkpt lat="31.775938" lon="34.974684">
<ele>385</ele>
<time>2020-08-26T01:19:35Z</time></trkpt>
<trkpt lat="31.775842" lon="34.974873">
<ele>384</ele>
<time>2020-08-26T01:19:38Z</time></trkpt>
<trkpt lat="31.7756" lon="34.975487">
<ele>384</ele>
<time>2020-08-26T01:19:46Z</time></trkpt>
<trkpt lat="31.775548" lon="34.975662">
<ele>384</ele>
<time>2020-08-26T01:19:50Z</time></trkpt>
<trkpt lat="31.775528" lon="34.975836">
<ele>385</ele>
<time>2020-08-26T01:19:56Z</time></trkpt>
<trkpt lat="31.775543" lon="34.97597">
<ele>386</ele>
<time>2020-08-26T01:20:00Z</time></trkpt>
<trkpt lat="31.775577" lon="34.976098">
<ele>386</ele>
<time>2020-08-26T01:20:04Z</time></trkpt>
<trkpt lat="31.775689" lon="34.976331">
<ele>388</ele>
<time>2020-08-26T01:20:12Z</time></trkpt>
<trkpt lat="31.775689" lon="34.976331">
<ele>388</ele>
<time>2020-08-26T01:20:12Z</time></trkpt>
<trkpt lat="31.775791" lon="34.976491">
<ele>390</ele>
<time>2020-08-26T01:20:18Z</time></trkpt>
<trkpt lat="31.776308" lon="34.977071">
<ele>393</ele>
<time>2020-08-26T01:20:37Z</time></trkpt>
<trkpt lat="31.776308" lon="34.977071">
<ele>393</ele>
<time>2020-08-26T01:20:37Z</time></trkpt>
<trkpt lat="31.776427" lon="34.9772">
<ele>393</ele>
<time>2020-08-26T01:20:40Z</time></trkpt>
<trkpt lat="31.776345" lon="34.977327">
<ele>392</ele>
<time>2020-08-26T01:20:43Z</time></trkpt>
<trkpt lat="31.775943" lon="34.978249">
<ele>396</ele>
<time>2020-08-26T01:21:02Z</time></trkpt>
<trkpt lat="31.77581" lon="34.978416">
<ele>397</ele>
<time>2020-08-26T01:21:07Z</time></trkpt>
<trkpt lat="31.775722" lon="34.978632">
<ele>397</ele>
<time>2020-08-26T01:21:13Z</time></trkpt>
<trkpt lat="31.775444" lon="34.979014">
<ele>397</ele>
<time>2020-08-26T01:21:22Z</time></trkpt>
<trkpt lat="31.775444" lon="34.979014">
<ele>397</ele>
<time>2020-08-26T01:21:22Z</time></trkpt>
<trkpt lat="31.77512" lon="34.979502">
<ele>398</ele>
<time>2020-08-26T01:21:32Z</time></trkpt>
<trkpt lat="31.775051" lon="34.97967">
<ele>399</ele>
<time>2020-08-26T01:21:36Z</time></trkpt>
<trkpt lat="31.775018" lon="34.979947">
<ele>400</ele>
<time>2020-08-26T01:21:41Z</time></trkpt>
<trkpt lat="31.775033" lon="34.980123">
<ele>400</ele>
<time>2020-08-26T01:21:44Z</time></trkpt>
<trkpt lat="31.775081" lon="34.980268">
<ele>400</ele>
<time>2020-08-26T01:21:47Z</time></trkpt>
<trkpt lat="31.775292" lon="34.980674">
<ele>399</ele>
<time>2020-08-26T01:21:52Z</time></trkpt>
<trkpt lat="31.775358" lon="34.98077">
<ele>399</ele>
<time>2020-08-26T01:21:53Z</time></trkpt>
<trkpt lat="31.775438" lon="34.980846">
<ele>398</ele>
<time>2020-08-26T01:21:54Z</time></trkpt>
<trkpt lat="31.775438" lon="34.980846">
<ele>398</ele>
<time>2020-08-26T01:21:54Z</time></trkpt>
<trkpt lat="31.775532" lon="34.980934">
<ele>397</ele>
<time>2020-08-26T01:21:55Z</time></trkpt>
<trkpt lat="31.776215" lon="34.981343">
<ele>393</ele>
<time>2020-08-26T01:22:03Z</time></trkpt>
<trkpt lat="31.776323" lon="34.981436">
<ele>393</ele>
<time>2020-08-26T01:22:05Z</time></trkpt>
<trkpt lat="31.776366" lon="34.981541">
<ele>393</ele>
<time>2020-08-26T01:22:06Z</time></trkpt>
<trkpt lat="31.776346" lon="34.98164">
<ele>394</ele>
<time>2020-08-26T01:22:07Z</time></trkpt>
<trkpt lat="31.776219" lon="34.981859">
<ele>392</ele>
<time>2020-08-26T01:22:09Z</time></trkpt>
<trkpt lat="31.776049" lon="34.982083">
<ele>390</ele>
<time>2020-08-26T01:22:11Z</time></trkpt>
<trkpt lat="31.775865" lon="34.982247">
<ele>389</ele>
<time>2020-08-26T01:22:13Z</time></trkpt>
<trkpt lat="31.775685" lon="34.98235">
<ele>387</ele>
<time>2020-08-26T01:22:15Z</time></trkpt>
<trkpt lat="31.775506" lon="34.982402">
<ele>385</ele>
<time>2020-08-26T01:22:16Z</time></trkpt>
<trkpt lat="31.775336" lon="34.98241">
<ele>384</ele>
<time>2020-08-26T01:22:17Z</time></trkpt>
<trkpt lat="31.775185" lon="34.982379">
<ele>384</ele>
<time>2020-08-26T01:22:18Z</time></trkpt>
<trkpt lat="31.775185" lon="34.982379">
<ele>384</ele>
<time>2020-08-26T01:22:18Z</time></trkpt>
<trkpt lat="31.774693" lon="34.982279">
<ele>389</ele>
<time>2020-08-26T01:22:32Z</time></trkpt>
<trkpt lat="31.774562" lon="34.982304">
<ele>389</ele>
<time>2020-08-26T01:22:36Z</time></trkpt>
<trkpt lat="31.774443" lon="34.98237">
<ele>389</ele>
<time>2020-08-26T01:22:40Z</time></trkpt>
<trkpt lat="31.774377" lon="34.982436">
<ele>388</ele>
<time>2020-08-26T01:22:42Z</time></trkpt>
<trkpt lat="31.774024" lon="34.983062">
<ele>378</ele>
<time>2020-08-26T01:22:46Z</time></trkpt>
<trkpt lat="31.773714" lon="34.983667">
<ele>373</ele>
<time>2020-08-26T01:22:51Z</time></trkpt>
<trkpt lat="31.773642" lon="34.983851">
<ele>372</ele>
<time>2020-08-26T01:22:53Z</time></trkpt>
<trkpt lat="31.773507" lon="34.983871">
<ele>372</ele>
<time>2020-08-26T01:22:55Z</time></trkpt>
<trkpt lat="31.773507" lon="34.983871">
<ele>372</ele>
<time>2020-08-26T01:22:55Z</time></trkpt>
<trkpt lat="31.77339" lon="34.983844">
<ele>372</ele>
<time>2020-08-26T01:22:56Z</time></trkpt>
<trkpt lat="31.773312" lon="34.983958">
<ele>371</ele>
<time>2020-08-26T01:22:57Z</time></trkpt>
<trkpt lat="31.773292" lon="34.984615">
<ele>368</ele>
<time>2020-08-26T01:23:02Z</time></trkpt>
<trkpt lat="31.77331" lon="34.984852">
<ele>368</ele>
<time>2020-08-26T01:23:05Z</time></trkpt>
<trkpt lat="31.773343" lon="34.985013">
<ele>368</ele>
<time>2020-08-26T01:23:07Z</time></trkpt>
<trkpt lat="31.773406" lon="34.985162">
<ele>367</ele>
<time>2020-08-26T01:23:09Z</time></trkpt>
<trkpt lat="31.773632" lon="34.985589">
<ele>367</ele>
<time>2020-08-26T01:23:15Z</time></trkpt>
<trkpt lat="31.773758" lon="34.985792">
<ele>367</ele>
<time>2020-08-26T01:23:18Z</time></trkpt>
<trkpt lat="31.773956" lon="34.986017">
<ele>367</ele>
<time>2020-08-26T01:23:22Z</time></trkpt>
<trkpt lat="31.774537" lon="34.986568">
<ele>362</ele>
<time>2020-08-26T01:23:29Z</time></trkpt>
<trkpt lat="31.774537" lon="34.986568">
<ele>362</ele>
<time>2020-08-26T01:23:29Z</time></trkpt>
<trkpt lat="31.774673" lon="34.98669">
<ele>361</ele>
<time>2020-08-26T01:23:30Z</time></trkpt>
<trkpt lat="31.775249" lon="34.987283">
<ele>353</ele>
<time>2020-08-26T01:23:31Z</time></trkpt>
<trkpt lat="31.775259" lon="34.987339">
<ele>352</ele>
<time>2020-08-26T01:23:31Z</time></trkpt>
<trkpt lat="31.775032" lon="34.987527">
<ele>349</ele>
<time>2020-08-26T01:23:31Z</time></trkpt>
<trkpt lat="31.774942" lon="34.987558">
<ele>347</ele>
<time>2020-08-26T01:23:31Z</time></trkpt>
<trkpt lat="31.774866" lon="34.987619">
<ele>345</ele>
<time>2020-08-26T01:23:32Z</time></trkpt>
<trkpt lat="31.774819" lon="34.987728">
<ele>343</ele>
<time>2020-08-26T01:23:32Z</time></trkpt>
<trkpt lat="31.77479" lon="34.987871">
<ele>341</ele>
<time>2020-08-26T01:23:33Z</time></trkpt>
<trkpt lat="31.774806" lon="34.988082">
<ele>338</ele>
<time>2020-08-26T01:23:33Z</time></trkpt>
<trkpt lat="31.774919" lon="34.988573">
<ele>335</ele>
<time>2020-08-26T01:23:41Z</time></trkpt>
<trkpt lat="31.774958" lon="34.988691">
<ele>335</ele>
<time>2020-08-26T01:23:43Z</time></trkpt>
<trkpt lat="31.775115" lon="34.988976">
<ele>337</ele>
<time>2020-08-26T01:23:50Z</time></trkpt>
<trkpt lat="31.775215" lon="34.989201">
<ele>339</ele>
<time>2020-08-26T01:23:54Z</time></trkpt>
<trkpt lat="31.775352" lon="34.989637">
<ele>340</ele>
<time>2020-08-26T01:24:00Z</time></trkpt>
<trkpt lat="31.775408" lon="34.990324">
<ele>337</ele>
<time>2020-08-26T01:24:08Z</time></trkpt>
<trkpt lat="31.775408" lon="34.990324">
<ele>337</ele>
<time>2020-08-26T01:24:08Z</time></trkpt>
<trkpt lat="31.775456" lon="34.990731">
<ele>335</ele>
<time>2020-08-26T01:24:11Z</time></trkpt>
<trkpt lat="31.775513" lon="34.99102">
<ele>333</ele>
<time>2020-08-26T01:24:15Z</time></trkpt>
<trkpt lat="31.775623" lon="34.991185">
<ele>334</ele>
<time>2020-08-26T01:24:20Z</time></trkpt>
<trkpt lat="31.775772" lon="34.991304">
<ele>336</ele>
<time>2020-08-26T01:24:25Z</time></trkpt>
<trkpt lat="31.775969" lon="34.991396">
<ele>337</ele>
<time>2020-08-26T01:24:32Z</time></trkpt>
<trkpt lat="31.776178" lon="34.991454">
<ele>338</ele>
<time>2020-08-26T01:24:37Z</time></trkpt>
<trkpt lat="31.776738" lon="34.991746">
<ele>337</ele>
<time>2020-08-26T01:24:44Z</time></trkpt>
<trkpt lat="31.777116" lon="34.992129">
<ele>333</ele>
<time>2020-08-26T01:24:48Z</time></trkpt>
<trkpt lat="31.777317" lon="34.992309">
<ele>332</ele>
<time>2020-08-26T01:24:50Z</time></trkpt>
<trkpt lat="31.777358" lon="34.992376">
<ele>331</ele>
<time>2020-08-26T01:24:51Z</time></trkpt>
<trkpt lat="31.777372" lon="34.992442">
<ele>330</ele>
<time>2020-08-26T01:24:51Z</time></trkpt>
<trkpt lat="31.777409" lon="34.992879">
<ele>328</ele>
<time>2020-08-26T01:24:55Z</time></trkpt>
<trkpt lat="31.777401" lon="34.993175">
<ele>327</ele>
<time>2020-08-26T01:24:59Z</time></trkpt>
<trkpt lat="31.777453" lon="34.993285">
<ele>327</ele>
<time>2020-08-26T01:25:00Z</time></trkpt>
<trkpt lat="31.777545" lon="34.993416">
<ele>328</ele>
<time>2020-08-26T01:25:02Z</time></trkpt>
<trkpt lat="31.777672" lon="34.993567">
<ele>328</ele>
<time>2020-08-26T01:25:05Z</time></trkpt>
<trkpt lat="31.777757" lon="34.993642">
<ele>328</ele>
<time>2020-08-26T01:25:07Z</time></trkpt>
<trkpt lat="31.778537" lon="34.99402">
<ele>325</ele>
<time>2020-08-26T01:25:21Z</time></trkpt>
<trkpt lat="31.778588" lon="34.99404">
<ele>325</ele>
<time>2020-08-26T01:25:22Z</time></trkpt>
<trkpt lat="31.778696" lon="34.994037">
<ele>324</ele>
<time>2020-08-26T01:25:23Z</time></trkpt>
<trkpt lat="31.778832" lon="34.993982">
<ele>325</ele>
<time>2020-08-26T01:25:25Z</time></trkpt>
<trkpt lat="31.778957" lon="34.993897">
<ele>326</ele>
<time>2020-08-26T01:25:27Z</time></trkpt>
<trkpt lat="31.779214" lon="34.993665">
<ele>331</ele>
<time>2020-08-26T01:25:37Z</time></trkpt>
<trkpt lat="31.779338" lon="34.993579">
<ele>332</ele>
<time>2020-08-26T01:25:41Z</time></trkpt>
<trkpt lat="31.779437" lon="34.993533">
<ele>333</ele>
<time>2020-08-26T01:25:45Z</time></trkpt>
<trkpt lat="31.779934" lon="34.99344">
<ele>331</ele>
<time>2020-08-26T01:25:59Z</time></trkpt>
<trkpt lat="31.780143" lon="34.993372">
<ele>331</ele>
<time>2020-08-26T01:26:03Z</time></trkpt>
<trkpt lat="31.780349" lon="34.993294">
<ele>332</ele>
<time>2020-08-26T01:26:07Z</time></trkpt>
<trkpt lat="31.780658" lon="34.993108">
<ele>334</ele>
<time>2020-08-26T01:26:16Z</time></trkpt>
<trkpt lat="31.780828" lon="34.993034">
<ele>334</ele>
<time>2020-08-26T01:26:22Z</time></trkpt>
<trkpt lat="31.780828" lon="34.993034">
<ele>334</ele>
<time>2020-08-26T01:26:22Z</time></trkpt>
<trkpt lat="31.781286" lon="34.992837">
<ele>339</ele>
<time>2020-08-26T01:26:38Z</time></trkpt>
<trkpt lat="31.781489" lon="34.992781">
<ele>340</ele>
<time>2020-08-26T01:26:45Z</time></trkpt>
<trkpt lat="31.781667" lon="34.992755">
<ele>340</ele>
<time>2020-08-26T01:26:51Z</time></trkpt>
<trkpt lat="31.781811" lon="34.992756">
<ele>342</ele>
<time>2020-08-26T01:26:56Z</time></trkpt>
<trkpt lat="31.781984" lon="34.992808">
<ele>343</ele>
<time>2020-08-26T01:27:02Z</time></trkpt>
<trkpt lat="31.782164" lon="34.992948">
<ele>343</ele>
<time>2020-08-26T01:27:06Z</time></trkpt>
<trkpt lat="31.782467" lon="34.993248">
<ele>342</ele>
<time>2020-08-26T01:27:11Z</time></trkpt>
<trkpt lat="31.782699" lon="34.993446">
<ele>341</ele>
<time>2020-08-26T01:27:14Z</time></trkpt>
<trkpt lat="31.783245" lon="34.993769">
<ele>342</ele>
<time>2020-08-26T01:27:26Z</time></trkpt>
<trkpt lat="31.783457" lon="34.993931">
<ele>342</ele>
<time>2020-08-26T01:27:31Z</time></trkpt>
<trkpt lat="31.78386" lon="34.994338">
<ele>342</ele>
<time>2020-08-26T01:27:39Z</time></trkpt>
<trkpt lat="31.784048" lon="34.994548">
<ele>342</ele>
<time>2020-08-26T01:27:43Z</time></trkpt>
<trkpt lat="31.78444" lon="34.995099">
<ele>339</ele>
<time>2020-08-26T01:27:49Z</time></trkpt>
<trkpt lat="31.784592" lon="34.995336">
<ele>338</ele>
<time>2020-08-26T01:27:51Z</time></trkpt>
<trkpt lat="31.784719" lon="34.995592">
<ele>336</ele>
<time>2020-08-26T01:27:53Z</time></trkpt>
<trkpt lat="31.7849" lon="34.996064">
<ele>334</ele>
<time>2020-08-26T01:27:57Z</time></trkpt>
<trkpt lat="31.7849" lon="34.996064">
<ele>334</ele>
<time>2020-08-26T01:27:57Z</time></trkpt>
<trkpt lat="31.78511" lon="34.996545">
<ele>331</ele>
<time>2020-08-26T01:28:00Z</time></trkpt>
<trkpt lat="31.785324" lon="34.996937">
<ele>328</ele>
<time>2020-08-26T01:28:03Z</time></trkpt>
<trkpt lat="31.785619" lon="34.997363">
<ele>326</ele>
<time>2020-08-26T01:28:07Z</time></trkpt>
<trkpt lat="31.785961" lon="34.99806">
<ele>317</ele>
<time>2020-08-26T01:28:12Z</time></trkpt>
<trkpt lat="31.786094" lon="34.998261">
<ele>314</ele>
<time>2020-08-26T01:28:14Z</time></trkpt>
<trkpt lat="31.786148" lon="34.998317">
<ele>313</ele>
<time>2020-08-26T01:28:14Z</time></trkpt>
<trkpt lat="31.786384" lon="34.998335">
<ele>313</ele>
<time>2020-08-26T01:28:20Z</time></trkpt>
<trkpt lat="31.786502" lon="34.998326">
<ele>313</ele>
<time>2020-08-26T01:28:25Z</time></trkpt>
<trkpt lat="31.786841" lon="34.998068">
<ele>318</ele>
<time>2020-08-26T01:28:41Z</time></trkpt>
<trkpt lat="31.787111" lon="34.99787">
<ele>321</ele>
<time>2020-08-26T01:28:49Z</time></trkpt>
<trkpt lat="31.787122" lon="34.99804">
<ele>320</ele>
<time>2020-08-26T01:28:50Z</time></trkpt>
<trkpt lat="31.787267" lon="34.998236">
<ele>321</ele>
<time>2020-08-26T01:28:53Z</time></trkpt>
<trkpt lat="31.787267" lon="34.998355">
<ele>320</ele>
<time>2020-08-26T01:28:54Z</time></trkpt>
<trkpt lat="31.787219" lon="34.998638">
<ele>316</ele>
<time>2020-08-26T01:28:56Z</time></trkpt>
<trkpt lat="31.787123" lon="34.998821">
<ele>313</ele>
<time>2020-08-26T01:28:57Z</time></trkpt>
<trkpt lat="31.78708" lon="34.998939">
<ele>311</ele>
<time>2020-08-26T01:28:57Z</time></trkpt>
<trkpt lat="31.78703" lon="34.99919">
<ele>307</ele>
<time>2020-08-26T01:28:58Z</time></trkpt>
<trkpt lat="31.787017" lon="34.999318">
<ele>305</ele>
<time>2020-08-26T01:28:59Z</time></trkpt>
<trkpt lat="31.787027" lon="34.999507">
<ele>303</ele>
<time>2020-08-26T01:29:00Z</time></trkpt>
<trkpt lat="31.787027" lon="34.999507">
<ele>303</ele>
<time>2020-08-26T01:29:00Z</time></trkpt>
<trkpt lat="31.787049" lon="34.999615">
<ele>301</ele>
<time>2020-08-26T01:29:00Z</time></trkpt>
<trkpt lat="31.787084" lon="34.99969">
<ele>301</ele>
<time>2020-08-26T01:29:01Z</time></trkpt>
<trkpt lat="31.787256" lon="34.999912">
<ele>300</ele>
<time>2020-08-26T01:29:03Z</time></trkpt>
<trkpt lat="31.787389" lon="35.000116">
<ele>299</ele>
<time>2020-08-26T01:29:04Z</time></trkpt>
<trkpt lat="31.787532" lon="35.000415">
<ele>297</ele>
<time>2020-08-26T01:29:07Z</time></trkpt>
<trkpt lat="31.78754" lon="35.0005">
<ele>296</ele>
<time>2020-08-26T01:29:07Z</time></trkpt>
<trkpt lat="31.787508" lon="35.000798">
<ele>292</ele>
<time>2020-08-26T01:29:09Z</time></trkpt>
<trkpt lat="31.787412" lon="35.001255">
<ele>293</ele>
<time>2020-08-26T01:29:14Z</time></trkpt>
<trkpt lat="31.787377" lon="35.001363">
<ele>293</ele>
<time>2020-08-26T01:29:17Z</time></trkpt>
<trkpt lat="31.787377" lon="35.001363">
<ele>293</ele>
<time>2020-08-26T01:29:17Z</time></trkpt>
<trkpt lat="31.787322" lon="35.001536">
<ele>294</ele>
<time>2020-08-26T01:29:21Z</time></trkpt>
<trkpt lat="31.787261" lon="35.001916">
<ele>296</ele>
<time>2020-08-26T01:29:31Z</time></trkpt>
<trkpt lat="31.787229" lon="35.00201">
<ele>297</ele>
<time>2020-08-26T01:29:34Z</time></trkpt>
<trkpt lat="31.787086" lon="35.002089">
<ele>297</ele>
<time>2020-08-26T01:29:38Z</time></trkpt>
<trkpt lat="31.786817" lon="35.002458">
<ele>300</ele>
<time>2020-08-26T01:29:50Z</time></trkpt>
<trkpt lat="31.786584" lon="35.002603">
<ele>301</ele>
<time>2020-08-26T01:29:58Z</time></trkpt>
<trkpt lat="31.786282" lon="35.002511">
<ele>299</ele>
<time>2020-08-26T01:30:00Z</time></trkpt>
<trkpt lat="31.786025" lon="35.002343">
<ele>295</ele>
<time>2020-08-26T01:30:00Z</time></trkpt>
<trkpt lat="31.78592" lon="35.002118">
<ele>292</ele>
<time>2020-08-26T01:30:00Z</time></trkpt>
<trkpt lat="31.786018" lon="35.001827">
<ele>288</ele>
<time>2020-08-26T01:30:00Z</time></trkpt>
<trkpt lat="31.78596" lon="35.001642">
<ele>285</ele>
<time>2020-08-26T01:30:00Z</time></trkpt>
<trkpt lat="31.785857" lon="35.001553">
<ele>285</ele>
<time>2020-08-26T01:30:00Z</time></trkpt>
<trkpt lat="31.785698" lon="35.00152">
<ele>283</ele>
<time>2020-08-26T01:30:01Z</time></trkpt>
<trkpt lat="31.785622" lon="35.00153">
<ele>283</ele>
<time>2020-08-26T01:30:01Z</time></trkpt>
<trkpt lat="31.785622" lon="35.00153">
<ele>283</ele>
<time>2020-08-26T01:30:01Z</time></trkpt>
<trkpt lat="31.785528" lon="35.001543">
<ele>282</ele>
<time>2020-08-26T01:30:01Z</time></trkpt>
<trkpt lat="31.785247" lon="35.001655">
<ele>280</ele>
<time>2020-08-26T01:30:04Z</time></trkpt>
<trkpt lat="31.784791" lon="35.001907">
<ele>279</ele>
<time>2020-08-26T01:30:09Z</time></trkpt>
<trkpt lat="31.784517" lon="35.002094">
<ele>280</ele>
<time>2020-08-26T01:30:12Z</time></trkpt>
<trkpt lat="31.784172" lon="35.001869">
<ele>276</ele>
<time>2020-08-26T01:30:17Z</time></trkpt>
<trkpt lat="31.783924" lon="35.001742">
<ele>275</ele>
<time>2020-08-26T01:30:20Z</time></trkpt>
<trkpt lat="31.783767" lon="35.001738">
<ele>274</ele>
<time>2020-08-26T01:30:22Z</time></trkpt>
<trkpt lat="31.783586" lon="35.001811">
<ele>274</ele>
<time>2020-08-26T01:30:24Z</time></trkpt>
<trkpt lat="31.783123" lon="35.001932">
<ele>274</ele>
<time>2020-08-26T01:30:31Z</time></trkpt>
<trkpt lat="31.782549" lon="35.001986">
<ele>273</ele>
<time>2020-08-26T01:30:39Z</time></trkpt>
<trkpt lat="31.781991" lon="35.00216">
<ele>269</ele>
<time>2020-08-26T01:30:48Z</time></trkpt>
</trkseg>
</trk>
</gpx>